KLM133 EHAM-KATL
Flight info
| Callsign | KLM133 |
|---|---|
| Flight time | N/A |
| Altitude | 34000 |
| Route | BERGI L60 OTBED DCT ABLUC DCT OZRAT DCT WETFI DCT REVNU DCT RESNO/M083F350 NATA TUDEP/N0477F360 N526A TOPPS/N0481F380 DCT KAYCC DCT KYLOH DCT BAF Q448 PTW J48 MOL DCT FLASK OZZZI2 |
| Aircraft | B77W/H-SDE1E2E3FGHIJ2J3J4J5M1RWXY/LB1D1 |
Departure
| Time | 2026-04-29 09:59 |
|---|---|
| Airport | Amsterdam Airport Schiphol (EHAM) |
Arrival
| Time | N/A |
|---|---|
| Airport | Hartsfield Jackson Atlanta International Airport (KATL) |
| Time | Latitude | Longitude | Altitude | Speed | Heading |
|---|---|---|---|---|---|
| 2026-04-29 09:26 | 52.31010 | 4.77120 | 2 ft | 0 kts | 182° |
| 2026-04-29 09:38 | 52.31031 | 4.77122 | 2 ft | 4 kts | 183° |
| 2026-04-29 09:38 | 52.31058 | 4.77124 | 2 ft | 4 kts | 185° |
| 2026-04-29 09:39 | 52.31073 | 4.77131 | 3 ft | 4 kts | 224° |
| 2026-04-29 09:39 | 52.31083 | 4.77165 | 5 ft | 4 kts | 278° |
| 2026-04-29 09:39 | 52.31080 | 4.77200 | 4 ft | 1 kts | 271° |
| 2026-04-29 09:39 | 52.31080 | 4.77206 | 4 ft | 0 kts | 271° |
| 2026-04-29 09:46 | 52.31080 | 4.77184 | 4 ft | 6 kts | 271° |
| 2026-04-29 09:46 | 52.31082 | 4.77074 | 2 ft | 11 kts | 272° |
| 2026-04-29 09:46 | 52.31108 | 4.76961 | 2 ft | 11 kts | 328° |
| 2026-04-29 09:46 | 52.31183 | 4.76978 | 2 ft | 11 kts | 25° |
| 2026-04-29 09:47 | 52.31250 | 4.77044 | 2 ft | 11 kts | 33° |
| 2026-04-29 09:47 | 52.31315 | 4.77115 | 2 ft | 11 kts | 34° |
| 2026-04-29 09:47 | 52.31383 | 4.77178 | 2 ft | 11 kts | 18° |
| 2026-04-29 09:47 | 52.31460 | 4.77195 | 2 ft | 11 kts | 4° |
| 2026-04-29 09:48 | 52.31537 | 4.77188 | 2 ft | 11 kts | 337° |
| 2026-04-29 09:48 | 52.31567 | 4.77076 | 2 ft | 11 kts | 272° |
| 2026-04-29 09:48 | 52.31564 | 4.76938 | 2 ft | 14 kts | 267° |
| 2026-04-29 09:48 | 52.31558 | 4.76758 | 2 ft | 18 kts | 267° |
| 2026-04-29 09:49 | 52.31551 | 4.76534 | 2 ft | 22 kts | 267° |
| 2026-04-29 09:49 | 52.31542 | 4.76277 | 2 ft | 23 kts | 266° |
| 2026-04-29 09:49 | 52.31533 | 4.76019 | 2 ft | 23 kts | 266° |
| 2026-04-29 09:49 | 52.31524 | 4.75761 | 2 ft | 23 kts | 266° |
| 2026-04-29 09:50 | 52.31515 | 4.75502 | 2 ft | 23 kts | 266° |
| 2026-04-29 09:50 | 52.31506 | 4.75244 | 2 ft | 23 kts | 266° |
| 2026-04-29 09:50 | 52.31497 | 4.74986 | 2 ft | 23 kts | 266° |
| 2026-04-29 09:50 | 52.31488 | 4.74729 | 2 ft | 23 kts | 267° |
| 2026-04-29 09:51 | 52.31479 | 4.74470 | 2 ft | 20 kts | 266° |
| 2026-04-29 09:51 | 52.31520 | 4.74305 | 2 ft | 17 kts | 342° |
| 2026-04-29 09:51 | 52.31638 | 4.74302 | 5 ft | 17 kts | 3° |
| 2026-04-29 09:51 | 52.31759 | 4.74314 | 2 ft | 19 kts | 4° |
| 2026-04-29 09:52 | 52.31897 | 4.74328 | -1 ft | 20 kts | 3° |
| 2026-04-29 09:52 | 52.32018 | 4.74284 | -1 ft | 18 kts | 303° |
| 2026-04-29 09:52 | 52.32035 | 4.74085 | -1 ft | 18 kts | 273° |
| 2026-04-29 09:52 | 52.32042 | 4.73881 | 3 ft | 18 kts | 274° |
| 2026-04-29 09:53 | 52.32051 | 4.73678 | 6 ft | 18 kts | 274° |
| 2026-04-29 09:53 | 52.32061 | 4.73475 | 6 ft | 18 kts | 281° |
| 2026-04-29 09:53 | 52.32125 | 4.73304 | 5 ft | 18 kts | 317° |
| 2026-04-29 09:53 | 52.32220 | 4.73169 | 3 ft | 18 kts | 319° |
| 2026-04-29 09:54 | 52.32317 | 4.73033 | 1 ft | 18 kts | 319° |
| 2026-04-29 09:54 | 52.32413 | 4.72898 | 2 ft | 18 kts | 319° |
| 2026-04-29 09:54 | 52.32510 | 4.72762 | 1 ft | 18 kts | 318° |
| 2026-04-29 09:54 | 52.32606 | 4.72626 | 2 ft | 18 kts | 319° |
| 2026-04-29 09:55 | 52.32698 | 4.72482 | 6 ft | 18 kts | 312° |
| 2026-04-29 09:55 | 52.32786 | 4.72324 | 5 ft | 19 kts | 310° |
| 2026-04-29 09:55 | 52.32872 | 4.72161 | 2 ft | 19 kts | 311° |
| 2026-04-29 09:55 | 52.32960 | 4.71999 | 2 ft | 19 kts | 311° |
| 2026-04-29 09:56 | 52.33048 | 4.71836 | 2 ft | 19 kts | 311° |
| 2026-04-29 09:56 | 52.33132 | 4.71668 | 4 ft | 19 kts | 301° |
| 2026-04-29 09:56 | 52.33116 | 4.71471 | 4 ft | 19 kts | 226° |
| 2026-04-29 09:56 | 52.33017 | 4.71326 | 2 ft | 19 kts | 221° |
| 2026-04-29 09:57 | 52.32917 | 4.71182 | 2 ft | 18 kts | 223° |
| 2026-04-29 09:57 | 52.32869 | 4.71065 | 1 ft | 11 kts | 255° |
| 2026-04-29 09:57 | 52.32871 | 4.70941 | 1 ft | 11 kts | 286° |
| 2026-04-29 09:57 | 52.32936 | 4.70893 | 0 ft | 11 kts | 358° |
| 2026-04-29 09:58 | 52.32951 | 4.70893 | 0 ft | 1 kts | 1° |
| 2026-04-29 09:58 | 52.32972 | 4.70894 | -1 ft | 9 kts | 2° |
| 2026-04-29 09:58 | 52.33245 | 4.70924 | -3 ft | 85 kts | 7° |
| 2026-04-29 09:58 | 52.34066 | 4.71004 | -2 ft | 151 kts | 3° |
| 2026-04-29 09:59 | 52.35295 | 4.71082 | 156 ft | 185 kts | 8° |
| 2026-04-29 09:59 | 52.36583 | 4.71223 | 797 ft | 192 kts | 9° |
| 2026-04-29 09:59 | 52.37990 | 4.71362 | 1266 ft | 214 kts | 9° |
| 2026-04-29 09:59 | 52.39503 | 4.71477 | 1955 ft | 224 kts | 9° |
| 2026-04-29 10:00 | 52.41130 | 4.71590 | 2466 ft | 239 kts | 10° |
| 2026-04-29 10:00 | 52.42819 | 4.71440 | 2948 ft | 258 kts | 347° |
| 2026-04-29 10:00 | 52.44372 | 4.69806 | 3593 ft | 275 kts | 320° |
| 2026-04-29 10:00 | 52.45730 | 4.67546 | 4237 ft | 282 kts | 320° |
| 2026-04-29 10:01 | 52.47123 | 4.65282 | 5105 ft | 282 kts | 321° |
| 2026-04-29 10:01 | 52.48522 | 4.63017 | 5936 ft | 284 kts | 320° |
| 2026-04-29 10:01 | 52.49929 | 4.60721 | 6739 ft | 286 kts | 320° |
| 2026-04-29 10:01 | 52.51342 | 4.58408 | 7520 ft | 288 kts | 320° |
| 2026-04-29 10:02 | 52.52882 | 4.56364 | 8174 ft | 285 kts | 332° |
| 2026-04-29 10:02 | 52.54600 | 4.54730 | 8904 ft | 286 kts | 336° |
| 2026-04-29 10:02 | 52.56360 | 4.53172 | 9679 ft | 288 kts | 336° |
| 2026-04-29 10:02 | 52.58131 | 4.51595 | 10402 ft | 291 kts | 335° |
| 2026-04-29 10:03 | 52.59933 | 4.49962 | 10877 ft | 304 kts | 335° |
| 2026-04-29 10:03 | 52.61854 | 4.48202 | 11068 ft | 328 kts | 334° |
| 2026-04-29 10:03 | 52.63909 | 4.46294 | 11252 ft | 351 kts | 334° |
| 2026-04-29 10:03 | 52.66096 | 4.44241 | 11532 ft | 370 kts | 333° |
| 2026-04-29 10:04 | 52.68366 | 4.42095 | 12145 ft | 381 kts | 333° |
| 2026-04-29 10:04 | 52.70679 | 4.39905 | 12936 ft | 386 kts | 334° |
| 2026-04-29 10:04 | 52.73002 | 4.37662 | 13774 ft | 387 kts | 330° |
| 2026-04-29 10:04 | 52.74983 | 4.34537 | 14326 ft | 406 kts | 307° |
| 2026-04-29 10:05 | 52.76168 | 4.30266 | 15015 ft | 412 kts | 290° |
| 2026-04-29 10:05 | 52.77028 | 4.25716 | 15691 ft | 418 kts | 290° |
| 2026-04-29 10:05 | 52.77925 | 4.21129 | 16501 ft | 421 kts | 290° |
| 2026-04-29 10:05 | 52.78837 | 4.16527 | 17339 ft | 423 kts | 291° |
| 2026-04-29 10:06 | 52.79760 | 4.11898 | 18139 ft | 426 kts | 291° |
| 2026-04-29 10:06 | 52.80690 | 4.07238 | 18870 ft | 430 kts | 291° |
| 2026-04-29 10:06 | 52.81635 | 4.02510 | 19492 ft | 435 kts | 291° |
| 2026-04-29 10:06 | 52.82589 | 3.97732 | 20029 ft | 441 kts | 290° |
| 2026-04-29 10:07 | 52.83554 | 3.92890 | 20637 ft | 446 kts | 290° |
| 2026-04-29 10:07 | 52.84526 | 3.87996 | 21279 ft | 449 kts | 290° |
| 2026-04-29 10:07 | 52.85503 | 3.83066 | 21891 ft | 453 kts | 290° |
| 2026-04-29 10:07 | 52.86487 | 3.78086 | 22478 ft | 458 kts | 290° |
| 2026-04-29 10:08 | 52.87482 | 3.73042 | 23058 ft | 462 kts | 290° |
| 2026-04-29 10:08 | 52.88468 | 3.68026 | 23618 ft | 467 kts | 290° |
| 2026-04-29 10:08 | 52.89476 | 3.62889 | 24157 ft | 471 kts | 290° |
| 2026-04-29 10:08 | 52.90488 | 3.57713 | 24607 ft | 475 kts | 290° |
| 2026-04-29 10:09 | 52.91507 | 3.52488 | 25080 ft | 478 kts | 290° |
| 2026-04-29 10:09 | 52.92534 | 3.47213 | 25511 ft | 483 kts | 290° |
| 2026-04-29 10:09 | 52.93565 | 3.41896 | 25920 ft | 487 kts | 290° |
| 2026-04-29 10:09 | 52.94602 | 3.36534 | 26383 ft | 490 kts | 290° |
| 2026-04-29 10:10 | 52.95641 | 3.31147 | 26831 ft | 493 kts | 290° |
| 2026-04-29 10:10 | 52.96688 | 3.25711 | 27237 ft | 497 kts | 290° |
| 2026-04-29 10:10 | 52.97741 | 3.20226 | 27579 ft | 502 kts | 290° |
| 2026-04-29 10:10 | 52.98800 | 3.14683 | 27973 ft | 505 kts | 290° |
| 2026-04-29 10:11 | 52.99858 | 3.09117 | 28405 ft | 507 kts | 290° |
| 2026-04-29 10:11 | 53.00919 | 3.03512 | 28844 ft | 509 kts | 290° |
| 2026-04-29 10:11 | 53.01982 | 2.97883 | 29197 ft | 513 kts | 290° |
| 2026-04-29 10:11 | 53.03050 | 2.92210 | 29542 ft | 516 kts | 289° |
| 2026-04-29 10:12 | 53.04120 | 2.86512 | 29867 ft | 518 kts | 289° |
| 2026-04-29 10:12 | 53.05191 | 2.80794 | 30286 ft | 519 kts | 289° |
| 2026-04-29 10:12 | 53.06257 | 2.75077 | 30751 ft | 517 kts | 289° |
| 2026-04-29 10:12 | 53.07318 | 2.69374 | 31185 ft | 515 kts | 290° |
| 2026-04-29 10:13 | 53.08374 | 2.63687 | 31583 ft | 514 kts | 290° |
| 2026-04-29 10:13 | 53.09428 | 2.57998 | 31944 ft | 514 kts | 290° |
| 2026-04-29 10:13 | 53.10466 | 2.52298 | 32285 ft | 515 kts | 288° |
| 2026-04-29 10:13 | 53.11288 | 2.46487 | 32584 ft | 518 kts | 281° |
| 2026-04-29 10:14 | 53.11801 | 2.40552 | 32931 ft | 518 kts | 279° |
| 2026-04-29 10:14 | 53.12257 | 2.34616 | 33291 ft | 517 kts | 279° |
| 2026-04-29 10:14 | 53.12697 | 2.28758 | 33624 ft | 517 kts | 279° |
| 2026-04-29 10:14 | 53.13147 | 2.22826 | 33962 ft | 516 kts | 279° |
| 2026-04-29 10:15 | 53.13606 | 2.16894 | 34294 ft | 516 kts | 279° |
| 2026-04-29 10:15 | 53.14073 | 2.10956 | 34408 ft | 520 kts | 279° |
| 2026-04-29 10:15 | 53.15021 | 1.98993 | 34435 ft | 520 kts | 279° |
| 2026-04-29 10:16 | 53.15804 | 1.89038 | 34443 ft | 516 kts | 279° |
| 2026-04-29 10:16 | 53.16870 | 1.75283 | 34447 ft | 514 kts | 279° |
| 2026-04-29 10:17 | 53.17772 | 1.63449 | 34449 ft | 514 kts | 279° |
| 2026-04-29 10:17 | 53.18662 | 1.51623 | 34446 ft | 515 kts | 279° |
| 2026-04-29 10:18 | 53.19543 | 1.39748 | 34451 ft | 517 kts | 279° |
| 2026-04-29 10:18 | 53.20414 | 1.27838 | 34453 ft | 519 kts | 278° |
| 2026-04-29 10:19 | 53.21277 | 1.15874 | 34451 ft | 520 kts | 278° |
| 2026-04-29 10:19 | 53.22129 | 1.03882 | 34448 ft | 521 kts | 278° |
| 2026-04-29 10:20 | 53.22971 | 0.91868 | 34439 ft | 522 kts | 278° |
| 2026-04-29 10:20 | 53.23801 | 0.79834 | 34433 ft | 522 kts | 278° |
| 2026-04-29 10:21 | 53.24620 | 0.67786 | 34434 ft | 522 kts | 278° |
| 2026-04-29 10:21 | 53.25426 | 0.55743 | 34422 ft | 522 kts | 278° |
| 2026-04-29 10:22 | 53.26215 | 0.43791 | 34428 ft | 521 kts | 277° |
| 2026-04-29 10:22 | 53.26995 | 0.31774 | 34429 ft | 520 kts | 277° |
| 2026-04-29 10:23 | 53.27762 | 0.19767 | 34425 ft | 520 kts | 277° |
| 2026-04-29 10:23 | 53.28520 | 0.07742 | 34428 ft | 520 kts | 277° |
| 2026-04-29 10:24 | 53.29421 | -0.02249 | 34416 ft | 518 kts | 284° |
| 2026-04-29 10:24 | 53.31005 | -0.14006 | 34425 ft | 519 kts | 284° |
| 2026-04-29 10:25 | 53.32597 | -0.25778 | 34429 ft | 519 kts | 284° |
| 2026-04-29 10:25 | 53.34140 | -0.37516 | 34431 ft | 520 kts | 283° |
| 2026-04-29 10:26 | 53.35663 | -0.49357 | 34432 ft | 521 kts | 283° |
| 2026-04-29 10:26 | 53.37173 | -0.61218 | 34430 ft | 521 kts | 283° |
| 2026-04-29 10:27 | 53.39418 | -0.79022 | 34426 ft | 521 kts | 283° |
| 2026-04-29 10:28 | 53.40902 | -0.90897 | 34424 ft | 521 kts | 283° |
| 2026-04-29 10:28 | 53.42374 | -1.02794 | 34421 ft | 521 kts | 283° |
| 2026-04-29 10:29 | 53.43833 | -1.14676 | 34429 ft | 521 kts | 283° |
| 2026-04-29 10:29 | 53.45283 | -1.26602 | 34432 ft | 522 kts | 282° |
| 2026-04-29 10:30 | 53.46723 | -1.38543 | 34434 ft | 522 kts | 282° |
| 2026-04-29 10:30 | 53.48151 | -1.50493 | 34416 ft | 522 kts | 282° |
| 2026-04-29 10:31 | 53.49570 | -1.62471 | 34423 ft | 524 kts | 282° |
| 2026-04-29 10:31 | 53.50979 | -1.74481 | 34414 ft | 525 kts | 282° |
| 2026-04-29 10:32 | 53.52380 | -1.86534 | 34404 ft | 526 kts | 282° |
| 2026-04-29 10:32 | 53.53771 | -1.98612 | 34412 ft | 526 kts | 282° |
| 2026-04-29 10:33 | 53.55149 | -2.10690 | 34397 ft | 527 kts | 281° |
| 2026-04-29 10:33 | 53.56509 | -2.22726 | 34408 ft | 527 kts | 281° |
| 2026-04-29 10:34 | 53.57866 | -2.34851 | 34404 ft | 527 kts | 281° |
| 2026-04-29 10:34 | 53.59210 | -2.46984 | 34399 ft | 528 kts | 281° |
| 2026-04-29 10:35 | 53.60544 | -2.59138 | 34396 ft | 528 kts | 281° |
| 2026-04-29 10:35 | 53.61867 | -2.71306 | 34396 ft | 528 kts | 281° |
| 2026-04-29 10:36 | 53.63177 | -2.83481 | 34401 ft | 528 kts | 281° |
| 2026-04-29 10:36 | 53.64474 | -2.95658 | 34401 ft | 528 kts | 281° |
| 2026-04-29 10:37 | 53.65759 | -3.07850 | 34399 ft | 528 kts | 280° |
| 2026-04-29 10:37 | 53.67031 | -3.20039 | 34405 ft | 528 kts | 280° |
| 2026-04-29 10:38 | 53.68293 | -3.32258 | 34397 ft | 529 kts | 280° |
| 2026-04-29 10:38 | 53.69543 | -3.44490 | 34382 ft | 529 kts | 280° |
| 2026-04-29 10:39 | 53.70776 | -3.56689 | 34396 ft | 527 kts | 280° |
| 2026-04-29 10:39 | 53.71995 | -3.68870 | 34402 ft | 526 kts | 280° |
| 2026-04-29 10:40 | 53.73201 | -3.81054 | 34396 ft | 526 kts | 280° |
| 2026-04-29 10:40 | 53.74396 | -3.93253 | 34403 ft | 527 kts | 280° |
| 2026-04-29 10:41 | 53.75580 | -4.05480 | 34395 ft | 528 kts | 280° |
| 2026-04-29 10:41 | 53.76752 | -4.17725 | 34402 ft | 528 kts | 280° |
| 2026-04-29 10:42 | 53.77915 | -4.30003 | 34397 ft | 530 kts | 279° |
| 2026-04-29 10:42 | 53.79071 | -4.42337 | 34382 ft | 531 kts | 279° |
| 2026-04-29 10:43 | 53.80099 | -4.54726 | 34379 ft | 532 kts | 274° |
| 2026-04-29 10:43 | 53.80499 | -4.67229 | 34400 ft | 533 kts | 272° |
| 2026-04-29 10:44 | 53.80896 | -4.79745 | 34392 ft | 533 kts | 273° |
| 2026-04-29 10:44 | 53.81314 | -4.92201 | 34408 ft | 533 kts | 273° |
| 2026-04-29 10:45 | 53.81701 | -5.04736 | 34414 ft | 533 kts | 273° |
| 2026-04-29 10:45 | 53.82075 | -5.17264 | 34409 ft | 533 kts | 272° |
| 2026-04-29 10:46 | 53.82439 | -5.29791 | 34403 ft | 532 kts | 272° |
| 2026-04-29 10:46 | 53.82792 | -5.42297 | 34417 ft | 531 kts | 272° |
| 2026-04-29 10:47 | 53.83654 | -5.54699 | 34418 ft | 530 kts | 283° |
| 2026-04-29 10:47 | 53.85553 | -5.66723 | 34426 ft | 528 kts | 287° |
| 2026-04-29 10:48 | 53.87510 | -5.78716 | 34410 ft | 527 kts | 286° |
| 2026-04-29 10:48 | 53.89410 | -5.90701 | 34414 ft | 526 kts | 286° |
| 2026-04-29 10:49 | 53.91270 | -6.02689 | 34429 ft | 525 kts | 286° |
| 2026-04-29 10:49 | 53.93109 | -6.14667 | 34408 ft | 525 kts | 285° |
| 2026-04-29 10:50 | 53.94939 | -6.26665 | 34416 ft | 525 kts | 285° |
| 2026-04-29 10:50 | 53.96762 | -6.38682 | 34409 ft | 526 kts | 285° |
| 2026-04-29 10:51 | 53.98576 | -6.50732 | 34409 ft | 528 kts | 285° |
| 2026-04-29 10:51 | 54.00384 | -6.62834 | 34404 ft | 529 kts | 285° |
| 2026-04-29 10:52 | 54.02171 | -6.74892 | 34408 ft | 530 kts | 285° |
| 2026-04-29 10:52 | 54.03972 | -6.87127 | 34392 ft | 530 kts | 285° |
| 2026-04-29 10:53 | 54.05737 | -6.99214 | 34394 ft | 529 kts | 285° |
| 2026-04-29 10:53 | 54.07494 | -7.11347 | 34388 ft | 527 kts | 285° |
| 2026-04-29 10:54 | 54.09231 | -7.23439 | 34379 ft | 525 kts | 285° |
| 2026-04-29 10:54 | 54.10955 | -7.35520 | 34374 ft | 524 kts | 284° |
| 2026-04-29 10:55 | 54.12661 | -7.47576 | 34391 ft | 523 kts | 284° |
| 2026-04-29 10:55 | 54.14353 | -7.59633 | 34388 ft | 523 kts | 284° |
| 2026-04-29 10:56 | 54.16033 | -7.71697 | 34377 ft | 523 kts | 284° |
| 2026-04-29 10:56 | 54.17703 | -7.83781 | 34378 ft | 523 kts | 284° |
| 2026-04-29 10:57 | 54.19360 | -7.95871 | 34384 ft | 524 kts | 284° |
| 2026-04-29 10:57 | 54.21007 | -8.07987 | 34382 ft | 524 kts | 284° |
| 2026-04-29 10:58 | 54.22643 | -8.20120 | 34350 ft | 523 kts | 283° |
| 2026-04-29 10:58 | 54.24261 | -8.32225 | 34346 ft | 522 kts | 283° |
| 2026-04-29 10:59 | 54.25862 | -8.44298 | 34371 ft | 520 kts | 283° |
| 2026-04-29 10:59 | 54.27447 | -8.56353 | 34380 ft | 519 kts | 283° |
| 2026-04-29 11:00 | 54.29019 | -8.68408 | 34368 ft | 518 kts | 283° |
| 2026-04-29 11:00 | 54.30577 | -8.80450 | 34372 ft | 518 kts | 283° |
| 2026-04-29 11:01 | 54.32121 | -8.92496 | 34375 ft | 518 kts | 283° |
| 2026-04-29 11:01 | 54.33654 | -9.04557 | 34366 ft | 518 kts | 283° |
| 2026-04-29 11:02 | 54.35177 | -9.16635 | 34366 ft | 519 kts | 283° |
| 2026-04-29 11:02 | 54.36681 | -9.28673 | 34361 ft | 520 kts | 283° |
| 2026-04-29 11:03 | 54.38185 | -9.40813 | 34362 ft | 521 kts | 283° |
| 2026-04-29 11:03 | 54.39676 | -9.52956 | 34371 ft | 520 kts | 282° |
| 2026-04-29 11:04 | 54.41152 | -9.65090 | 34366 ft | 519 kts | 282° |
| 2026-04-29 11:04 | 54.42609 | -9.77176 | 34371 ft | 516 kts | 282° |
| 2026-04-29 11:05 | 54.44047 | -9.89215 | 34369 ft | 513 kts | 282° |
| 2026-04-29 11:05 | 54.45469 | -10.01213 | 34373 ft | 511 kts | 282° |
| 2026-04-29 11:06 | 54.46878 | -10.13182 | 34380 ft | 510 kts | 282° |
| 2026-04-29 11:06 | 54.48390 | -10.25097 | 34384 ft | 510 kts | 283° |
| 2026-04-29 11:07 | 54.49959 | -10.37003 | 34372 ft | 511 kts | 283° |
| 2026-04-29 11:07 | 54.51511 | -10.48942 | 34380 ft | 512 kts | 283° |
| 2026-04-29 11:08 | 54.53037 | -10.60919 | 34379 ft | 512 kts | 283° |
| 2026-04-29 11:08 | 54.54546 | -10.72914 | 34372 ft | 512 kts | 282° |
| 2026-04-29 11:09 | 54.56035 | -10.84863 | 34372 ft | 509 kts | 282° |
| 2026-04-29 11:09 | 54.57507 | -10.96771 | 34369 ft | 506 kts | 282° |
| 2026-04-29 11:10 | 54.58961 | -11.08618 | 34365 ft | 504 kts | 282° |
| 2026-04-29 11:10 | 54.60396 | -11.20420 | 34371 ft | 502 kts | 282° |
| 2026-04-29 11:11 | 54.61579 | -11.30223 | 34370 ft | 502 kts | 282° |
| 2026-04-29 11:11 | 54.62992 | -11.42030 | 34373 ft | 502 kts | 282° |
| 2026-04-29 11:12 | 54.64622 | -11.55777 | 34373 ft | 504 kts | 282° |
| 2026-04-29 11:12 | 54.65789 | -11.65717 | 34374 ft | 505 kts | 282° |
| 2026-04-29 11:13 | 54.67175 | -11.77610 | 34371 ft | 506 kts | 282° |
| 2026-04-29 11:13 | 54.68551 | -11.89529 | 34363 ft | 506 kts | 281° |
| 2026-04-29 11:14 | 54.69915 | -12.01448 | 34369 ft | 505 kts | 281° |
| 2026-04-29 11:14 | 54.71262 | -12.13340 | 34360 ft | 503 kts | 281° |
| 2026-04-29 11:15 | 54.72593 | -12.25190 | 34362 ft | 501 kts | 281° |
| 2026-04-29 11:15 | 54.73909 | -12.37024 | 34365 ft | 500 kts | 281° |
| 2026-04-29 11:16 | 54.75211 | -12.48839 | 34363 ft | 500 kts | 281° |
| 2026-04-29 11:16 | 54.76492 | -12.60573 | 34371 ft | 499 kts | 280° |
| 2026-04-29 11:17 | 54.77770 | -12.72396 | 34360 ft | 499 kts | 280° |
| 2026-04-29 11:17 | 54.79036 | -12.84217 | 34362 ft | 499 kts | 280° |
| 2026-04-29 11:18 | 54.80291 | -12.96057 | 34355 ft | 500 kts | 280° |
| 2026-04-29 11:18 | 54.81535 | -13.07907 | 34361 ft | 500 kts | 280° |
| 2026-04-29 11:19 | 54.82769 | -13.19764 | 34365 ft | 499 kts | 279° |
| 2026-04-29 11:19 | 54.83985 | -13.31585 | 34352 ft | 497 kts | 279° |
| 2026-04-29 11:20 | 54.85186 | -13.43374 | 34349 ft | 495 kts | 279° |
| 2026-04-29 11:20 | 54.86371 | -13.55131 | 34352 ft | 494 kts | 279° |
| 2026-04-29 11:21 | 54.87544 | -13.66877 | 34344 ft | 493 kts | 279° |
| 2026-04-29 11:21 | 54.88704 | -13.78610 | 34357 ft | 493 kts | 278° |
| 2026-04-29 11:22 | 54.89844 | -13.90275 | 34343 ft | 493 kts | 278° |
| 2026-04-29 11:22 | 54.90981 | -14.02018 | 34346 ft | 493 kts | 278° |
| 2026-04-29 11:23 | 54.92107 | -14.13781 | 34342 ft | 493 kts | 278° |
| 2026-04-29 11:23 | 54.93222 | -14.25547 | 34343 ft | 493 kts | 278° |
| 2026-04-29 11:24 | 54.94325 | -14.37316 | 34358 ft | 492 kts | 277° |
| 2026-04-29 11:24 | 54.95414 | -14.49050 | 34337 ft | 490 kts | 277° |
| 2026-04-29 11:25 | 54.96484 | -14.60720 | 34330 ft | 487 kts | 277° |
| 2026-04-29 11:25 | 54.97538 | -14.72341 | 34333 ft | 485 kts | 277° |
| 2026-04-29 11:26 | 54.99093 | -14.89712 | 34342 ft | 484 kts | 277° |
| 2026-04-29 11:26 | 55.00058 | -15.01292 | 34331 ft | 482 kts | 272° |
| 2026-04-29 11:27 | 55.00333 | -15.12930 | 34336 ft | 481 kts | 269° |
| 2026-04-29 11:27 | 55.00503 | -15.24575 | 34326 ft | 481 kts | 269° |
| 2026-04-29 11:28 | 55.00685 | -15.36162 | 34326 ft | 482 kts | 269° |
| 2026-04-29 11:28 | 55.00879 | -15.47833 | 34337 ft | 482 kts | 269° |
| 2026-04-29 11:29 | 55.01069 | -15.59511 | 34325 ft | 482 kts | 269° |
| 2026-04-29 11:29 | 55.01248 | -15.71182 | 34325 ft | 481 kts | 269° |
| 2026-04-29 11:30 | 55.01414 | -15.82827 | 34325 ft | 481 kts | 269° |
| 2026-04-29 11:30 | 55.01568 | -15.94465 | 34323 ft | 480 kts | 269° |
| 2026-04-29 11:31 | 55.01710 | -16.06089 | 34339 ft | 480 kts | 268° |
| 2026-04-29 11:31 | 55.01842 | -16.17703 | 34318 ft | 478 kts | 268° |
| 2026-04-29 11:32 | 55.01962 | -16.29274 | 34313 ft | 477 kts | 268° |
| 2026-04-29 11:32 | 55.02071 | -16.40823 | 34312 ft | 476 kts | 268° |
| 2026-04-29 11:33 | 55.02169 | -16.52344 | 34312 ft | 475 kts | 268° |
| 2026-04-29 11:33 | 55.02255 | -16.63861 | 34323 ft | 475 kts | 268° |
| 2026-04-29 11:34 | 55.02331 | -16.75370 | 34316 ft | 475 kts | 268° |
| 2026-04-29 11:34 | 55.02396 | -16.86894 | 34316 ft | 475 kts | 268° |
| 2026-04-29 11:35 | 55.02450 | -16.98417 | 34313 ft | 475 kts | 268° |
| 2026-04-29 11:35 | 55.02493 | -17.09941 | 34307 ft | 476 kts | 268° |
| 2026-04-29 11:36 | 55.02526 | -17.21460 | 34307 ft | 476 kts | 268° |
| 2026-04-29 11:36 | 55.02547 | -17.32985 | 34305 ft | 476 kts | 267° |
| 2026-04-29 11:37 | 55.02558 | -17.44452 | 34305 ft | 476 kts | 267° |
| 2026-04-29 11:37 | 55.02558 | -17.55982 | 34297 ft | 476 kts | 267° |
| 2026-04-29 11:38 | 55.02547 | -17.67514 | 34299 ft | 475 kts | 267° |
| 2026-04-29 11:38 | 55.02525 | -17.79025 | 34288 ft | 474 kts | 267° |
| 2026-04-29 11:39 | 55.02492 | -17.90516 | 34283 ft | 473 kts | 267° |
| 2026-04-29 11:39 | 55.02449 | -18.01963 | 34281 ft | 472 kts | 267° |
| 2026-04-29 11:40 | 55.02395 | -18.13400 | 34281 ft | 471 kts | 267° |
| 2026-04-29 11:40 | 55.02330 | -18.24823 | 34281 ft | 471 kts | 266° |
| 2026-04-29 11:41 | 55.02255 | -18.36233 | 34301 ft | 471 kts | 267° |
| 2026-04-29 11:41 | 55.02169 | -18.47658 | 34278 ft | 472 kts | 267° |
| 2026-04-29 11:42 | 55.02072 | -18.59087 | 34287 ft | 472 kts | 266° |
| 2026-04-29 11:42 | 55.01964 | -18.70522 | 34287 ft | 472 kts | 266° |
| 2026-04-29 11:43 | 55.01846 | -18.81980 | 34273 ft | 473 kts | 266° |
| 2026-04-29 11:43 | 55.01717 | -18.93434 | 34285 ft | 473 kts | 266° |
| 2026-04-29 11:44 | 55.01577 | -19.04886 | 34280 ft | 473 kts | 266° |
| 2026-04-29 11:44 | 55.01426 | -19.16321 | 34269 ft | 472 kts | 266° |
| 2026-04-29 11:45 | 55.01265 | -19.27751 | 34264 ft | 472 kts | 266° |
| 2026-04-29 11:45 | 55.01093 | -19.39167 | 34267 ft | 471 kts | 266° |
| 2026-04-29 11:46 | 55.00912 | -19.50571 | 34282 ft | 470 kts | 265° |
| 2026-04-29 11:46 | 55.00720 | -19.61941 | 34259 ft | 469 kts | 265° |
| 2026-04-29 11:47 | 55.00519 | -19.73183 | 34253 ft | 467 kts | 265° |
| 2026-04-29 11:47 | 55.00307 | -19.84538 | 34251 ft | 465 kts | 265° |
| 2026-04-29 11:48 | 55.00088 | -19.95702 | 34252 ft | 464 kts | 265° |
| 2026-04-29 11:48 | 55.00209 | -20.06957 | 34268 ft | 466 kts | 270° |
| 2026-04-29 11:49 | 55.00690 | -20.18214 | 34249 ft | 466 kts | 271° |
| 2026-04-29 11:49 | 55.01162 | -20.29485 | 34245 ft | 466 kts | 270° |
| 2026-04-29 11:50 | 55.01605 | -20.40759 | 34240 ft | 467 kts | 270° |
| 2026-04-29 11:50 | 55.02026 | -20.52045 | 34240 ft | 467 kts | 270° |
| 2026-04-29 11:51 | 55.02435 | -20.63334 | 34238 ft | 467 kts | 270° |
| 2026-04-29 11:51 | 55.02834 | -20.74623 | 34241 ft | 466 kts | 269° |
| 2026-04-29 11:52 | 55.03222 | -20.85892 | 34230 ft | 466 kts | 269° |
| 2026-04-29 11:52 | 55.03601 | -20.97149 | 34234 ft | 464 kts | 269° |
| 2026-04-29 11:53 | 55.03966 | -21.08360 | 34214 ft | 462 kts | 269° |
| 2026-04-29 11:53 | 55.04320 | -21.19532 | 34215 ft | 461 kts | 269° |
| 2026-04-29 11:54 | 55.04663 | -21.30667 | 34230 ft | 460 kts | 268° |
| 2026-04-29 11:54 | 55.04995 | -21.41797 | 34214 ft | 459 kts | 268° |
| 2026-04-29 11:55 | 55.05316 | -21.52907 | 34206 ft | 458 kts | 268° |
| 2026-04-29 11:55 | 55.05627 | -21.64010 | 34210 ft | 458 kts | 268° |
| 2026-04-29 11:56 | 55.05926 | -21.75049 | 34208 ft | 459 kts | 268° |
| 2026-04-29 11:56 | 55.06217 | -21.86171 | 34233 ft | 459 kts | 268° |
| 2026-04-29 11:57 | 55.06499 | -21.97307 | 34203 ft | 460 kts | 268° |
| 2026-04-29 11:57 | 55.06770 | -22.08453 | 34197 ft | 460 kts | 268° |
| 2026-04-29 11:58 | 55.07032 | -22.19599 | 34223 ft | 460 kts | 268° |
| 2026-04-29 11:58 | 55.07283 | -22.30740 | 34192 ft | 459 kts | 267° |
| 2026-04-29 11:59 | 55.07524 | -22.41864 | 34190 ft | 458 kts | 267° |
| 2026-04-29 11:59 | 55.07754 | -22.52966 | 34187 ft | 457 kts | 267° |
| 2026-04-29 12:00 | 55.07973 | -22.64043 | 34180 ft | 456 kts | 266° |
| 2026-04-29 12:00 | 55.08148 | -22.73233 | 34181 ft | 455 kts | 266° |
| 2026-04-29 12:01 | 55.08380 | -22.86114 | 34179 ft | 454 kts | 266° |
| 2026-04-29 12:01 | 55.08537 | -22.95261 | 34183 ft | 454 kts | 266° |
| 2026-04-29 12:02 | 55.08716 | -23.06282 | 34169 ft | 454 kts | 266° |
| 2026-04-29 12:02 | 55.08886 | -23.17307 | 34173 ft | 454 kts | 266° |
| 2026-04-29 12:03 | 55.09046 | -23.28336 | 34166 ft | 455 kts | 266° |
| 2026-04-29 12:03 | 55.09196 | -23.39385 | 34167 ft | 455 kts | 266° |
| 2026-04-29 12:04 | 55.09337 | -23.50445 | 34191 ft | 456 kts | 265° |
| 2026-04-29 12:04 | 55.09468 | -23.61491 | 34164 ft | 454 kts | 265° |
| 2026-04-29 12:05 | 55.09589 | -23.72499 | 34161 ft | 453 kts | 265° |
| 2026-04-29 12:05 | 55.09699 | -23.83443 | 34145 ft | 449 kts | 265° |
| 2026-04-29 12:06 | 55.09799 | -23.94291 | 34150 ft | 445 kts | 264° |
| 2026-04-29 12:06 | 55.09887 | -24.05073 | 34143 ft | 443 kts | 264° |
| 2026-04-29 12:07 | 55.09964 | -24.15838 | 34151 ft | 443 kts | 264° |
| 2026-04-29 12:07 | 55.10032 | -24.26616 | 34172 ft | 445 kts | 264° |
| 2026-04-29 12:08 | 55.10092 | -24.37437 | 34149 ft | 446 kts | 264° |
| 2026-04-29 12:08 | 55.10142 | -24.48296 | 34143 ft | 447 kts | 264° |
| 2026-04-29 12:09 | 55.10184 | -24.59162 | 34141 ft | 448 kts | 263° |
| 2026-04-29 12:09 | 55.10216 | -24.70028 | 34158 ft | 448 kts | 263° |
| 2026-04-29 12:10 | 55.10238 | -24.80930 | 34161 ft | 449 kts | 263° |
| 2026-04-29 12:10 | 55.10252 | -24.91741 | 34156 ft | 447 kts | 262° |
| 2026-04-29 12:11 | 55.10256 | -25.02558 | 34141 ft | 444 kts | 262° |
| 2026-04-29 12:11 | 55.10250 | -25.13296 | 34132 ft | 440 kts | 262° |
| 2026-04-29 12:12 | 55.10232 | -25.23943 | 34154 ft | 438 kts | 262° |
| 2026-04-29 12:12 | 55.10204 | -25.34598 | 34134 ft | 440 kts | 262° |
| 2026-04-29 12:13 | 55.10168 | -25.45287 | 34151 ft | 441 kts | 262° |
| 2026-04-29 12:13 | 55.10122 | -25.56023 | 34145 ft | 443 kts | 261° |
| 2026-04-29 12:14 | 55.10070 | -25.66766 | 34139 ft | 441 kts | 261° |
| 2026-04-29 12:14 | 55.10010 | -25.77430 | 34140 ft | 438 kts | 261° |
| 2026-04-29 12:15 | 55.09939 | -25.88026 | 34148 ft | 436 kts | 261° |
| 2026-04-29 12:15 | 55.09856 | -25.98605 | 34154 ft | 437 kts | 261° |
| 2026-04-29 12:16 | 55.09762 | -26.09203 | 34243 ft | 441 kts | 260° |
| 2026-04-29 12:16 | 55.09662 | -26.19933 | 34165 ft | 442 kts | 259° |
| 2026-04-29 12:17 | 55.09556 | -26.30615 | 34151 ft | 437 kts | 259° |
| 2026-04-29 12:17 | 55.09444 | -26.41150 | 34159 ft | 431 kts | 259° |
| 2026-04-29 12:18 | 55.09318 | -26.51582 | 34158 ft | 429 kts | 259° |
| 2026-04-29 12:18 | 55.09181 | -26.61998 | 34175 ft | 430 kts | 259° |
| 2026-04-29 12:19 | 55.09033 | -26.72472 | 34188 ft | 433 kts | 258° |
| 2026-04-29 12:19 | 55.08877 | -26.83032 | 34185 ft | 436 kts | 258° |
| 2026-04-29 12:20 | 55.08714 | -26.93643 | 34181 ft | 438 kts | 258° |
| 2026-04-29 12:20 | 55.08542 | -27.04278 | 34182 ft | 439 kts | 258° |
| 2026-04-29 12:21 | 55.08361 | -27.14926 | 34187 ft | 438 kts | 258° |
| 2026-04-29 12:21 | 55.08171 | -27.25549 | 34186 ft | 437 kts | 258° |
| 2026-04-29 12:22 | 55.07970 | -27.36152 | 34192 ft | 437 kts | 258° |
| 2026-04-29 12:22 | 55.07762 | -27.46728 | 34190 ft | 435 kts | 258° |
| 2026-04-29 12:23 | 55.07546 | -27.57251 | 34181 ft | 432 kts | 257° |
| 2026-04-29 12:23 | 55.07322 | -27.67637 | 34182 ft | 430 kts | 257° |
| 2026-04-29 12:24 | 55.07089 | -27.78046 | 34198 ft | 429 kts | 257° |
| 2026-04-29 12:24 | 55.06847 | -27.88425 | 34198 ft | 428 kts | 257° |
| 2026-04-29 12:25 | 55.06594 | -27.98826 | 34202 ft | 430 kts | 257° |
| 2026-04-29 12:26 | 55.06200 | -28.14473 | 34198 ft | 431 kts | 257° |
| 2026-04-29 12:26 | 55.05926 | -28.24925 | 34207 ft | 432 kts | 257° |
| 2026-04-29 12:27 | 55.05643 | -28.35388 | 34204 ft | 432 kts | 257° |
| 2026-04-29 12:27 | 55.05351 | -28.45858 | 34204 ft | 432 kts | 257° |
| 2026-04-29 12:28 | 55.05049 | -28.56328 | 34215 ft | 433 kts | 257° |
| 2026-04-29 12:28 | 55.04737 | -28.66829 | 34269 ft | 434 kts | 257° |
| 2026-04-29 12:29 | 55.04414 | -28.77372 | 34215 ft | 436 kts | 258° |
| 2026-04-29 12:29 | 55.04082 | -28.87950 | 34211 ft | 437 kts | 258° |
| 2026-04-29 12:30 | 55.03741 | -28.98546 | 34214 ft | 438 kts | 257° |
| 2026-04-29 12:30 | 55.03390 | -29.09144 | 34214 ft | 438 kts | 257° |
| 2026-04-29 12:31 | 55.03030 | -29.19743 | 34209 ft | 438 kts | 257° |
| 2026-04-29 12:31 | 55.02664 | -29.30250 | 34213 ft | 437 kts | 257° |
| 2026-04-29 12:32 | 55.02286 | -29.40827 | 34209 ft | 437 kts | 257° |
| 2026-04-29 12:32 | 55.01899 | -29.51381 | 34208 ft | 436 kts | 257° |
| 2026-04-29 12:33 | 55.01503 | -29.61927 | 34208 ft | 436 kts | 257° |
| 2026-04-29 12:33 | 55.01099 | -29.72463 | 34227 ft | 437 kts | 258° |
| 2026-04-29 12:34 | 55.00682 | -29.83059 | 34221 ft | 440 kts | 258° |
| 2026-04-29 12:34 | 55.00256 | -29.93710 | 34222 ft | 442 kts | 258° |
| 2026-04-29 12:35 | 54.99792 | -30.04404 | 34224 ft | 443 kts | 257° |
| 2026-04-29 12:35 | 54.99175 | -30.15068 | 34218 ft | 442 kts | 256° |
| 2026-04-29 12:36 | 54.98521 | -30.25717 | 34220 ft | 442 kts | 256° |
| 2026-04-29 12:36 | 54.97872 | -30.36368 | 34227 ft | 443 kts | 257° |
| 2026-04-29 12:37 | 54.97224 | -30.47024 | 34228 ft | 443 kts | 257° |
| 2026-04-29 12:37 | 54.96570 | -30.57675 | 34225 ft | 443 kts | 257° |
| 2026-04-29 12:38 | 54.95908 | -30.68326 | 34223 ft | 443 kts | 257° |
| 2026-04-29 12:38 | 54.95236 | -30.78976 | 34217 ft | 443 kts | 257° |
| 2026-04-29 12:39 | 54.94555 | -30.89614 | 34245 ft | 443 kts | 257° |
| 2026-04-29 12:39 | 54.93864 | -31.00254 | 34233 ft | 443 kts | 257° |
| 2026-04-29 12:40 | 54.93163 | -31.10894 | 34228 ft | 443 kts | 257° |
| 2026-04-29 12:40 | 54.92459 | -31.21443 | 34229 ft | 442 kts | 257° |
| 2026-04-29 12:41 | 54.91741 | -31.32062 | 34267 ft | 442 kts | 257° |
| 2026-04-29 12:41 | 54.91013 | -31.42692 | 34241 ft | 443 kts | 257° |
| 2026-04-29 12:42 | 54.90277 | -31.53312 | 34242 ft | 443 kts | 257° |
| 2026-04-29 12:42 | 54.89529 | -31.63940 | 34237 ft | 443 kts | 257° |
| 2026-04-29 12:43 | 54.88772 | -31.74565 | 34242 ft | 444 kts | 257° |
| 2026-04-29 12:43 | 54.88005 | -31.85198 | 34241 ft | 444 kts | 257° |
| 2026-04-29 12:44 | 54.87229 | -31.95830 | 34240 ft | 444 kts | 257° |
| 2026-04-29 12:44 | 54.86443 | -32.06461 | 34249 ft | 444 kts | 258° |
| 2026-04-29 12:45 | 54.85646 | -32.17106 | 34245 ft | 446 kts | 258° |
| 2026-04-29 12:45 | 54.84838 | -32.27785 | 34248 ft | 447 kts | 257° |
| 2026-04-29 12:46 | 54.84019 | -32.38472 | 34245 ft | 447 kts | 257° |
| 2026-04-29 12:46 | 54.83189 | -32.49177 | 34248 ft | 448 kts | 257° |
| 2026-04-29 12:47 | 54.82349 | -32.59886 | 34244 ft | 448 kts | 257° |
| 2026-04-29 12:47 | 54.81505 | -32.70519 | 34281 ft | 449 kts | 258° |
| 2026-04-29 12:48 | 54.80642 | -32.81255 | 34257 ft | 451 kts | 259° |
| 2026-04-29 12:48 | 54.79768 | -32.92037 | 34254 ft | 452 kts | 259° |
| 2026-04-29 12:49 | 54.78881 | -33.02845 | 34257 ft | 453 kts | 258° |
| 2026-04-29 12:49 | 54.77982 | -33.13664 | 34252 ft | 454 kts | 258° |
| 2026-04-29 12:50 | 54.77229 | -33.22650 | 34254 ft | 454 kts | 259° |
| 2026-04-29 12:50 | 54.76312 | -33.33466 | 34255 ft | 454 kts | 259° |
| 2026-04-29 12:51 | 54.75386 | -33.44274 | 34257 ft | 454 kts | 259° |
| 2026-04-29 12:51 | 54.74452 | -33.55068 | 34259 ft | 453 kts | 259° |
| 2026-04-29 12:52 | 54.73508 | -33.65851 | 34258 ft | 453 kts | 259° |
| 2026-04-29 12:52 | 54.72555 | -33.76622 | 34261 ft | 453 kts | 259° |
| 2026-04-29 12:53 | 54.71593 | -33.87385 | 34257 ft | 453 kts | 259° |
| 2026-04-29 12:53 | 54.70622 | -33.98143 | 34266 ft | 453 kts | 259° |
| 2026-04-29 12:54 | 54.69639 | -34.08905 | 34281 ft | 453 kts | 260° |
| 2026-04-29 12:54 | 54.68647 | -34.19675 | 34272 ft | 454 kts | 259° |
| 2026-04-29 12:55 | 54.67643 | -34.30459 | 34259 ft | 455 kts | 259° |
| 2026-04-29 12:55 | 54.66628 | -34.41248 | 34261 ft | 455 kts | 260° |
| 2026-04-29 12:56 | 54.65603 | -34.52038 | 34260 ft | 456 kts | 260° |
| 2026-04-29 12:56 | 54.64568 | -34.62834 | 34265 ft | 456 kts | 260° |
| 2026-04-29 12:57 | 54.63528 | -34.73577 | 34262 ft | 457 kts | 260° |
| 2026-04-29 12:57 | 54.62471 | -34.84388 | 34268 ft | 457 kts | 260° |
| 2026-04-29 12:58 | 54.61405 | -34.95192 | 34269 ft | 457 kts | 260° |
| 2026-04-29 12:58 | 54.60328 | -35.05996 | 34266 ft | 457 kts | 260° |
| 2026-04-29 12:59 | 54.59242 | -35.16789 | 34271 ft | 457 kts | 260° |
| 2026-04-29 12:59 | 54.58147 | -35.27569 | 34273 ft | 456 kts | 260° |
| 2026-04-29 13:00 | 54.57043 | -35.38343 | 34271 ft | 456 kts | 259° |
| 2026-04-29 13:00 | 54.55929 | -35.49108 | 34279 ft | 456 kts | 260° |
| 2026-04-29 13:01 | 54.54806 | -35.59861 | 34279 ft | 456 kts | 261° |
| 2026-04-29 13:01 | 54.53676 | -35.70604 | 34275 ft | 456 kts | 261° |
| 2026-04-29 13:02 | 54.52534 | -35.81352 | 34281 ft | 456 kts | 261° |
| 2026-04-29 13:02 | 54.51382 | -35.92095 | 34280 ft | 456 kts | 261° |
| 2026-04-29 13:03 | 54.50220 | -36.02829 | 34281 ft | 457 kts | 261° |
| 2026-04-29 13:03 | 54.49049 | -36.13560 | 34272 ft | 456 kts | 262° |
| 2026-04-29 13:04 | 54.47868 | -36.24293 | 34282 ft | 457 kts | 262° |
| 2026-04-29 13:04 | 54.46677 | -36.35028 | 34288 ft | 458 kts | 262° |
| 2026-04-29 13:05 | 54.45473 | -36.45779 | 34289 ft | 458 kts | 262° |
| 2026-04-29 13:05 | 54.44259 | -36.56534 | 34289 ft | 459 kts | 262° |
| 2026-04-29 13:06 | 54.43033 | -36.67283 | 34277 ft | 459 kts | 263° |
| 2026-04-29 13:06 | 54.41806 | -36.77967 | 34303 ft | 459 kts | 263° |
| 2026-04-29 13:07 | 54.40555 | -36.88784 | 34286 ft | 459 kts | 263° |
| 2026-04-29 13:07 | 54.39308 | -36.99472 | 34287 ft | 459 kts | 263° |
| 2026-04-29 13:08 | 54.38043 | -37.10214 | 34299 ft | 459 kts | 263° |
| 2026-04-29 13:08 | 54.36770 | -37.20939 | 34262 ft | 459 kts | 263° |
| 2026-04-29 13:09 | 54.35490 | -37.31633 | 34283 ft | 456 kts | 263° |
| 2026-04-29 13:09 | 54.34209 | -37.42254 | 34290 ft | 454 kts | 263° |
| 2026-04-29 13:10 | 54.32924 | -37.52831 | 34292 ft | 452 kts | 263° |
| 2026-04-29 13:10 | 54.31634 | -37.63367 | 34291 ft | 451 kts | 263° |
| 2026-04-29 13:11 | 54.30336 | -37.73886 | 34295 ft | 451 kts | 263° |
| 2026-04-29 13:11 | 54.29030 | -37.84383 | 34291 ft | 450 kts | 263° |
| 2026-04-29 13:12 | 54.27719 | -37.94846 | 34290 ft | 449 kts | 263° |
| 2026-04-29 13:12 | 54.26403 | -38.05271 | 34319 ft | 448 kts | 264° |
| 2026-04-29 13:13 | 54.25081 | -38.15658 | 34304 ft | 446 kts | 264° |
| 2026-04-29 13:13 | 54.23754 | -38.26014 | 34303 ft | 445 kts | 264° |
| 2026-04-29 13:14 | 54.22424 | -38.36324 | 34283 ft | 443 kts | 264° |
| 2026-04-29 13:14 | 54.21089 | -38.46587 | 34293 ft | 443 kts | 264° |
| 2026-04-29 13:15 | 54.19746 | -38.56847 | 34300 ft | 443 kts | 264° |
| 2026-04-29 13:15 | 54.18394 | -38.67109 | 34308 ft | 444 kts | 263° |
| 2026-04-29 13:16 | 54.17028 | -38.77395 | 34300 ft | 445 kts | 263° |
| 2026-04-29 13:16 | 54.15652 | -38.87681 | 34263 ft | 445 kts | 263° |
| 2026-04-29 13:17 | 54.14264 | -38.97988 | 34300 ft | 446 kts | 263° |
| 2026-04-29 13:17 | 54.12865 | -39.08306 | 34305 ft | 447 kts | 263° |
| 2026-04-29 13:18 | 54.11452 | -39.18649 | 34305 ft | 448 kts | 263° |
| 2026-04-29 13:18 | 54.10037 | -39.28936 | 34308 ft | 449 kts | 263° |
| 2026-04-29 13:19 | 54.08603 | -39.39288 | 34308 ft | 449 kts | 263° |
| 2026-04-29 13:19 | 54.07161 | -39.49631 | 34300 ft | 449 kts | 263° |
| 2026-04-29 13:20 | 54.05709 | -39.59977 | 34307 ft | 450 kts | 263° |
| 2026-04-29 13:20 | 54.04245 | -39.70333 | 34308 ft | 451 kts | 263° |
| 2026-04-29 13:21 | 54.02770 | -39.80701 | 34310 ft | 451 kts | 263° |
| 2026-04-29 13:21 | 54.01285 | -39.91077 | 34305 ft | 452 kts | 263° |
| 2026-04-29 13:22 | 53.99788 | -40.01453 | 34279 ft | 452 kts | 263° |
| 2026-04-29 13:22 | 53.98234 | -40.11816 | 34303 ft | 453 kts | 262° |
| 2026-04-29 13:23 | 53.96647 | -40.22182 | 34308 ft | 454 kts | 262° |
| 2026-04-29 13:23 | 53.95054 | -40.32554 | 34305 ft | 454 kts | 262° |
| 2026-04-29 13:24 | 53.93455 | -40.42934 | 34303 ft | 455 kts | 262° |
| 2026-04-29 13:24 | 53.91857 | -40.53253 | 34307 ft | 455 kts | 262° |
| 2026-04-29 13:25 | 53.90231 | -40.63690 | 34308 ft | 455 kts | 262° |
| 2026-04-29 13:25 | 53.87802 | -40.79161 | 34301 ft | 454 kts | 262° |
| 2026-04-29 13:26 | 53.86168 | -40.89488 | 34308 ft | 454 kts | 262° |
| 2026-04-29 13:26 | 53.84525 | -40.99803 | 34306 ft | 453 kts | 262° |
| 2026-04-29 13:27 | 53.82876 | -41.10102 | 34292 ft | 453 kts | 262° |
| 2026-04-29 13:27 | 53.81216 | -41.20403 | 34306 ft | 454 kts | 261° |
| 2026-04-29 13:28 | 53.79541 | -41.30735 | 34313 ft | 456 kts | 261° |
| 2026-04-29 13:28 | 53.77851 | -41.41096 | 34312 ft | 458 kts | 261° |
| 2026-04-29 13:29 | 53.76147 | -41.51473 | 34305 ft | 458 kts | 261° |
| 2026-04-29 13:29 | 53.74434 | -41.61842 | 34282 ft | 458 kts | 261° |
| 2026-04-29 13:30 | 53.72710 | -41.72214 | 34306 ft | 459 kts | 261° |
| 2026-04-29 13:30 | 53.70977 | -41.82585 | 34302 ft | 459 kts | 261° |
| 2026-04-29 13:31 | 53.69231 | -41.92963 | 34309 ft | 460 kts | 261° |
| 2026-04-29 13:31 | 53.67477 | -42.03333 | 34306 ft | 459 kts | 261° |
| 2026-04-29 13:32 | 53.65716 | -42.13676 | 34279 ft | 459 kts | 261° |
| 2026-04-29 13:32 | 53.63948 | -42.24003 | 34304 ft | 458 kts | 261° |
| 2026-04-29 13:33 | 53.62172 | -42.34320 | 34312 ft | 459 kts | 261° |
| 2026-04-29 13:33 | 53.60385 | -42.44643 | 34308 ft | 459 kts | 261° |
| 2026-04-29 13:34 | 53.58586 | -42.54970 | 34308 ft | 460 kts | 261° |
| 2026-04-29 13:34 | 53.56776 | -42.65303 | 34270 ft | 460 kts | 261° |
| 2026-04-29 13:35 | 53.54957 | -42.75623 | 34299 ft | 461 kts | 261° |
| 2026-04-29 13:35 | 53.53136 | -42.85905 | 34310 ft | 462 kts | 261° |
| 2026-04-29 13:36 | 53.51289 | -42.96264 | 34306 ft | 463 kts | 261° |
| 2026-04-29 13:36 | 53.49429 | -43.06639 | 34307 ft | 464 kts | 261° |
| 2026-04-29 13:37 | 53.47559 | -43.17011 | 34274 ft | 464 kts | 261° |
| 2026-04-29 13:37 | 53.45678 | -43.27381 | 34306 ft | 465 kts | 261° |
| 2026-04-29 13:38 | 53.44096 | -43.36065 | 34310 ft | 465 kts | 261° |
| 2026-04-29 13:38 | 53.42208 | -43.46374 | 34310 ft | 466 kts | 260° |
| 2026-04-29 13:39 | 53.40296 | -43.56752 | 34307 ft | 466 kts | 260° |
| 2026-04-29 13:39 | 53.38374 | -43.67124 | 34312 ft | 466 kts | 260° |
| 2026-04-29 13:40 | 53.36443 | -43.77489 | 34309 ft | 467 kts | 260° |
| 2026-04-29 13:40 | 53.34500 | -43.87860 | 34314 ft | 468 kts | 260° |
| 2026-04-29 13:41 | 53.32543 | -43.98255 | 34309 ft | 469 kts | 260° |
| 2026-04-29 13:41 | 53.30574 | -44.08648 | 34318 ft | 469 kts | 259° |
| 2026-04-29 13:42 | 53.28591 | -44.19058 | 34316 ft | 470 kts | 259° |
| 2026-04-29 13:42 | 53.26601 | -44.29448 | 34311 ft | 470 kts | 259° |
| 2026-04-29 13:43 | 53.24600 | -44.39839 | 34316 ft | 470 kts | 259° |
| 2026-04-29 13:43 | 53.22590 | -44.50225 | 34319 ft | 470 kts | 258° |
| 2026-04-29 13:44 | 53.20574 | -44.60579 | 34313 ft | 469 kts | 258° |
| 2026-04-29 13:44 | 53.18552 | -44.70906 | 34317 ft | 468 kts | 258° |
| 2026-04-29 13:45 | 53.16527 | -44.81198 | 34310 ft | 467 kts | 258° |
| 2026-04-29 13:45 | 53.14508 | -44.91405 | 34319 ft | 467 kts | 258° |
| 2026-04-29 13:46 | 53.12467 | -45.01673 | 34316 ft | 467 kts | 258° |
| 2026-04-29 13:46 | 53.10417 | -45.11932 | 34314 ft | 467 kts | 258° |
| 2026-04-29 13:47 | 53.08354 | -45.22199 | 34316 ft | 468 kts | 258° |
| 2026-04-29 13:47 | 53.06282 | -45.32457 | 34310 ft | 468 kts | 257° |
| 2026-04-29 13:48 | 53.04198 | -45.42720 | 34316 ft | 469 kts | 257° |
| 2026-04-29 13:48 | 53.02103 | -45.52988 | 34310 ft | 469 kts | 257° |
| 2026-04-29 13:49 | 52.99998 | -45.63246 | 34323 ft | 470 kts | 257° |
| 2026-04-29 13:49 | 52.97881 | -45.73511 | 34326 ft | 469 kts | 257° |
| 2026-04-29 13:50 | 52.95760 | -45.83740 | 34320 ft | 469 kts | 257° |
| 2026-04-29 13:50 | 52.93633 | -45.93944 | 34306 ft | 468 kts | 257° |
| 2026-04-29 13:51 | 52.91501 | -46.04129 | 34307 ft | 467 kts | 257° |
| 2026-04-29 13:51 | 52.89361 | -46.14293 | 34304 ft | 467 kts | 257° |
| 2026-04-29 13:52 | 52.87228 | -46.24381 | 34293 ft | 467 kts | 256° |
| 2026-04-29 13:52 | 52.85059 | -46.34582 | 34308 ft | 467 kts | 256° |
| 2026-04-29 13:53 | 52.82893 | -46.44720 | 34311 ft | 468 kts | 256° |
| 2026-04-29 13:53 | 52.80715 | -46.54865 | 34311 ft | 469 kts | 256° |
| 2026-04-29 13:54 | 52.78539 | -46.64950 | 34320 ft | 470 kts | 256° |
| 2026-04-29 13:54 | 52.76335 | -46.75112 | 34286 ft | 470 kts | 256° |
| 2026-04-29 13:55 | 52.74122 | -46.85268 | 34312 ft | 471 kts | 256° |
| 2026-04-29 13:55 | 52.71895 | -46.95432 | 34322 ft | 471 kts | 255° |
| 2026-04-29 13:56 | 52.69665 | -47.05565 | 34310 ft | 470 kts | 255° |
| 2026-04-29 13:56 | 52.67427 | -47.15681 | 34313 ft | 469 kts | 255° |
| 2026-04-29 13:57 | 52.65187 | -47.25760 | 34294 ft | 468 kts | 255° |
| 2026-04-29 13:57 | 52.62941 | -47.35815 | 34312 ft | 468 kts | 255° |
| 2026-04-29 13:58 | 52.60687 | -47.45864 | 34317 ft | 468 kts | 255° |
| 2026-04-29 13:58 | 52.58419 | -47.55922 | 34316 ft | 469 kts | 255° |
| 2026-04-29 13:59 | 52.56141 | -47.65981 | 34316 ft | 470 kts | 254° |
| 2026-04-29 13:59 | 52.53851 | -47.76037 | 34301 ft | 470 kts | 254° |
| 2026-04-29 14:00 | 52.51550 | -47.86096 | 34315 ft | 471 kts | 254° |
| 2026-04-29 14:00 | 52.49238 | -47.96156 | 34310 ft | 471 kts | 254° |
| 2026-04-29 14:01 | 52.46915 | -48.06216 | 34311 ft | 472 kts | 254° |
| 2026-04-29 14:01 | 52.44600 | -48.16195 | 34310 ft | 471 kts | 254° |
| 2026-04-29 14:02 | 52.42263 | -48.26221 | 34311 ft | 471 kts | 253° |
| 2026-04-29 14:02 | 52.39919 | -48.36230 | 34312 ft | 471 kts | 253° |
| 2026-04-29 14:03 | 52.37565 | -48.46235 | 34321 ft | 471 kts | 253° |
| 2026-04-29 14:03 | 52.35201 | -48.56238 | 34320 ft | 472 kts | 253° |
| 2026-04-29 14:04 | 52.32825 | -48.66241 | 34320 ft | 472 kts | 253° |
| 2026-04-29 14:04 | 52.30442 | -48.76234 | 34308 ft | 472 kts | 253° |
| 2026-04-29 14:05 | 52.28046 | -48.86227 | 34317 ft | 473 kts | 253° |
| 2026-04-29 14:05 | 52.25640 | -48.96223 | 34314 ft | 473 kts | 253° |
| 2026-04-29 14:06 | 52.23221 | -49.06223 | 34318 ft | 474 kts | 253° |
| 2026-04-29 14:06 | 52.20794 | -49.16212 | 34297 ft | 474 kts | 252° |
| 2026-04-29 14:07 | 52.18356 | -49.26200 | 34319 ft | 474 kts | 252° |
| 2026-04-29 14:07 | 52.15914 | -49.36158 | 34320 ft | 473 kts | 252° |
| 2026-04-29 14:08 | 52.13467 | -49.46089 | 34319 ft | 472 kts | 252° |
| 2026-04-29 14:08 | 52.11017 | -49.55993 | 34318 ft | 471 kts | 252° |
| 2026-04-29 14:09 | 52.08562 | -49.65872 | 34295 ft | 471 kts | 252° |
| 2026-04-29 14:09 | 52.06100 | -49.75738 | 34317 ft | 471 kts | 252° |
| 2026-04-29 14:10 | 52.03626 | -49.85605 | 34319 ft | 472 kts | 251° |
| 2026-04-29 14:10 | 52.01141 | -49.95483 | 34318 ft | 473 kts | 251° |
| 2026-04-29 14:11 | 51.98686 | -50.05309 | 34316 ft | 473 kts | 252° |
| 2026-04-29 14:11 | 51.96299 | -50.15250 | 34302 ft | 474 kts | 252° |
| 2026-04-29 14:12 | 51.93913 | -50.25211 | 34318 ft | 474 kts | 252° |
| 2026-04-29 14:12 | 51.91503 | -50.35178 | 34315 ft | 475 kts | 252° |
| 2026-04-29 14:13 | 51.89080 | -50.45120 | 34315 ft | 475 kts | 252° |
| 2026-04-29 14:13 | 51.86648 | -50.55044 | 34316 ft | 474 kts | 252° |
| 2026-04-29 14:14 | 51.84212 | -50.64940 | 34309 ft | 473 kts | 252° |
| 2026-04-29 14:14 | 51.81773 | -50.74808 | 34309 ft | 472 kts | 252° |
| 2026-04-29 14:15 | 51.79330 | -50.84648 | 34313 ft | 472 kts | 251° |
| 2026-04-29 14:15 | 51.76881 | -50.94470 | 34314 ft | 471 kts | 251° |
| 2026-04-29 14:16 | 51.74423 | -51.04282 | 34310 ft | 472 kts | 251° |
| 2026-04-29 14:16 | 51.71957 | -51.14086 | 34309 ft | 472 kts | 251° |
| 2026-04-29 14:17 | 51.69495 | -51.23827 | 34316 ft | 473 kts | 251° |
| 2026-04-29 14:17 | 51.67002 | -51.33652 | 34314 ft | 474 kts | 251° |
| 2026-04-29 14:18 | 51.64496 | -51.43481 | 34312 ft | 475 kts | 251° |
| 2026-04-29 14:18 | 51.61982 | -51.53300 | 34296 ft | 474 kts | 250° |
| 2026-04-29 14:19 | 51.59464 | -51.63094 | 34307 ft | 473 kts | 250° |
| 2026-04-29 14:19 | 51.56943 | -51.72850 | 34309 ft | 472 kts | 250° |
| 2026-04-29 14:20 | 51.54418 | -51.82585 | 34310 ft | 472 kts | 250° |
| 2026-04-29 14:20 | 51.51888 | -51.92301 | 34306 ft | 472 kts | 250° |
| 2026-04-29 14:21 | 51.49350 | -52.02003 | 34293 ft | 471 kts | 249° |
| 2026-04-29 14:21 | 51.46803 | -52.11697 | 34305 ft | 472 kts | 249° |
| 2026-04-29 14:22 | 51.44244 | -52.21395 | 34311 ft | 472 kts | 249° |
| 2026-04-29 14:22 | 51.41674 | -52.31096 | 34306 ft | 473 kts | 249° |
| 2026-04-29 14:23 | 51.39093 | -52.40793 | 34307 ft | 473 kts | 249° |
| 2026-04-29 14:23 | 51.36502 | -52.50492 | 34302 ft | 474 kts | 249° |
| 2026-04-29 14:24 | 51.33907 | -52.60163 | 34301 ft | 473 kts | 248° |
| 2026-04-29 14:24 | 51.31305 | -52.69815 | 34303 ft | 472 kts | 248° |
| 2026-04-29 14:25 | 51.29140 | -52.77821 | 34299 ft | 472 kts | 248° |
| 2026-04-29 14:25 | 51.26107 | -52.88989 | 34303 ft | 471 kts | 248° |
| 2026-04-29 14:26 | 51.23491 | -52.98580 | 34311 ft | 471 kts | 248° |
| 2026-04-29 14:26 | 51.21291 | -53.06612 | 34301 ft | 472 kts | 248° |
| 2026-04-29 14:27 | 51.18661 | -53.16190 | 34303 ft | 472 kts | 248° |
| 2026-04-29 14:28 | 51.14614 | -53.30500 | 34297 ft | 473 kts | 246° |
| 2026-04-29 14:28 | 51.11749 | -53.39919 | 34301 ft | 473 kts | 245° |
| 2026-04-29 14:29 | 51.08887 | -53.49272 | 34309 ft | 473 kts | 245° |
| 2026-04-29 14:29 | 51.06015 | -53.58696 | 34312 ft | 473 kts | 245° |
| 2026-04-29 14:30 | 51.03147 | -53.68112 | 34303 ft | 473 kts | 245° |
| 2026-04-29 14:30 | 51.00276 | -53.77509 | 34305 ft | 472 kts | 245° |
| 2026-04-29 14:31 | 50.97401 | -53.86882 | 34302 ft | 472 kts | 244° |
| 2026-04-29 14:31 | 50.94521 | -53.96237 | 34309 ft | 472 kts | 244° |
| 2026-04-29 14:32 | 50.91633 | -54.05579 | 34306 ft | 472 kts | 244° |
| 2026-04-29 14:32 | 50.88736 | -54.14914 | 34307 ft | 472 kts | 244° |
| 2026-04-29 14:33 | 50.85833 | -54.24235 | 34303 ft | 472 kts | 244° |
| 2026-04-29 14:33 | 50.82919 | -54.33554 | 34306 ft | 473 kts | 244° |
| 2026-04-29 14:34 | 50.79992 | -54.42879 | 34307 ft | 473 kts | 244° |
| 2026-04-29 14:34 | 50.77056 | -54.52195 | 34306 ft | 474 kts | 244° |
| 2026-04-29 14:35 | 50.74114 | -54.61499 | 34301 ft | 474 kts | 244° |
| 2026-04-29 14:35 | 50.71158 | -54.70809 | 34305 ft | 474 kts | 243° |
| 2026-04-29 14:36 | 50.68199 | -54.80095 | 34307 ft | 474 kts | 243° |
| 2026-04-29 14:36 | 50.65230 | -54.89378 | 34301 ft | 474 kts | 243° |
| 2026-04-29 14:37 | 50.62252 | -54.98654 | 34304 ft | 474 kts | 243° |
| 2026-04-29 14:37 | 50.59268 | -55.07913 | 34301 ft | 474 kts | 243° |
| 2026-04-29 14:38 | 50.56278 | -55.17155 | 34300 ft | 474 kts | 243° |
| 2026-04-29 14:38 | 50.53283 | -55.26381 | 34307 ft | 474 kts | 243° |
| 2026-04-29 14:39 | 50.50297 | -55.35544 | 34310 ft | 474 kts | 243° |
| 2026-04-29 14:39 | 50.47285 | -55.44754 | 34307 ft | 474 kts | 243° |
| 2026-04-29 14:40 | 50.44264 | -55.53958 | 34305 ft | 475 kts | 242° |
| 2026-04-29 14:40 | 50.41229 | -55.63169 | 34316 ft | 475 kts | 242° |
| 2026-04-29 14:41 | 50.38187 | -55.72366 | 34317 ft | 475 kts | 242° |
| 2026-04-29 14:41 | 50.35138 | -55.81554 | 34311 ft | 475 kts | 242° |
| 2026-04-29 14:42 | 50.32081 | -55.90731 | 34310 ft | 475 kts | 241° |
| 2026-04-29 14:42 | 50.29021 | -55.99881 | 34308 ft | 475 kts | 241° |
| 2026-04-29 14:43 | 50.25959 | -56.09009 | 34305 ft | 474 kts | 241° |
| 2026-04-29 14:43 | 50.22887 | -56.18130 | 34307 ft | 474 kts | 241° |
| 2026-04-29 14:44 | 50.19813 | -56.27225 | 34311 ft | 474 kts | 241° |
| 2026-04-29 14:44 | 50.16731 | -56.36311 | 34305 ft | 474 kts | 240° |
| 2026-04-29 14:45 | 50.13660 | -56.45333 | 34308 ft | 474 kts | 240° |
| 2026-04-29 14:45 | 50.10560 | -56.54406 | 34306 ft | 474 kts | 240° |
| 2026-04-29 14:46 | 50.07451 | -56.63475 | 34302 ft | 475 kts | 240° |
| 2026-04-29 14:46 | 50.04333 | -56.72537 | 34313 ft | 475 kts | 239° |
| 2026-04-29 14:47 | 50.01201 | -56.81605 | 34302 ft | 477 kts | 239° |
| 2026-04-29 14:47 | 49.98057 | -56.90676 | 34299 ft | 477 kts | 239° |
| 2026-04-29 14:48 | 49.94904 | -56.99745 | 34297 ft | 477 kts | 239° |
| 2026-04-29 14:48 | 49.91747 | -57.08791 | 34298 ft | 477 kts | 239° |
| 2026-04-29 14:49 | 49.88579 | -57.17834 | 34279 ft | 477 kts | 239° |
| 2026-04-29 14:49 | 49.85402 | -57.26872 | 34298 ft | 477 kts | 238° |
| 2026-04-29 14:50 | 49.82217 | -57.35904 | 34295 ft | 478 kts | 238° |
| 2026-04-29 14:50 | 49.79023 | -57.44928 | 34302 ft | 478 kts | 238° |
| 2026-04-29 14:51 | 49.75823 | -57.53939 | 34281 ft | 478 kts | 238° |
| 2026-04-29 14:51 | 49.72611 | -57.62945 | 34306 ft | 478 kts | 238° |
| 2026-04-29 14:52 | 49.69396 | -57.71937 | 34327 ft | 478 kts | 237° |
| 2026-04-29 14:52 | 49.66174 | -57.80914 | 34298 ft | 478 kts | 237° |
| 2026-04-29 14:53 | 49.62949 | -57.89868 | 34337 ft | 477 kts | 237° |
| 2026-04-29 14:53 | 49.59714 | -57.98816 | 34316 ft | 478 kts | 237° |
| 2026-04-29 14:54 | 49.56473 | -58.07751 | 34326 ft | 478 kts | 237° |
| 2026-04-29 14:54 | 49.53222 | -58.16683 | 34322 ft | 478 kts | 237° |
| 2026-04-29 14:55 | 49.49962 | -58.25611 | 34319 ft | 479 kts | 237° |
| 2026-04-29 14:55 | 49.46692 | -58.34534 | 34326 ft | 479 kts | 236° |
| 2026-04-29 14:56 | 49.43434 | -58.43394 | 34317 ft | 480 kts | 236° |
| 2026-04-29 14:56 | 49.40142 | -58.52315 | 34318 ft | 480 kts | 236° |
| 2026-04-29 14:57 | 49.36844 | -58.61224 | 34316 ft | 480 kts | 236° |
| 2026-04-29 14:57 | 49.33542 | -58.70111 | 34334 ft | 480 kts | 236° |
| 2026-04-29 14:58 | 49.30228 | -58.79002 | 34321 ft | 480 kts | 236° |
| 2026-04-29 14:58 | 49.26912 | -58.87866 | 34315 ft | 479 kts | 236° |
| 2026-04-29 14:59 | 49.23595 | -58.96705 | 34315 ft | 479 kts | 236° |
| 2026-04-29 14:59 | 49.20274 | -59.05523 | 34316 ft | 478 kts | 236° |
| 2026-04-29 15:00 | 49.16947 | -59.14329 | 34314 ft | 478 kts | 236° |
| 2026-04-29 15:00 | 49.13619 | -59.23106 | 34313 ft | 478 kts | 236° |
| 2026-04-29 15:01 | 49.10282 | -59.31878 | 34314 ft | 478 kts | 235° |
| 2026-04-29 15:01 | 49.06938 | -59.40641 | 34313 ft | 478 kts | 235° |
| 2026-04-29 15:02 | 49.03587 | -59.49392 | 34309 ft | 478 kts | 235° |
| 2026-04-29 15:02 | 49.00228 | -59.58133 | 34310 ft | 478 kts | 235° |
| 2026-04-29 15:03 | 48.96859 | -59.66876 | 34314 ft | 479 kts | 234° |
| 2026-04-29 15:03 | 48.93480 | -59.75611 | 34306 ft | 479 kts | 234° |
| 2026-04-29 15:04 | 48.90120 | -59.84272 | 34311 ft | 479 kts | 234° |
| 2026-04-29 15:04 | 48.86725 | -59.92990 | 34303 ft | 479 kts | 234° |
| 2026-04-29 15:05 | 48.83328 | -60.01689 | 34301 ft | 479 kts | 234° |
| 2026-04-29 15:05 | 48.79923 | -60.10377 | 34301 ft | 479 kts | 234° |
| 2026-04-29 15:06 | 48.76516 | -60.19045 | 34312 ft | 479 kts | 233° |
| 2026-04-29 15:06 | 48.73099 | -60.27707 | 34299 ft | 479 kts | 233° |
| 2026-04-29 15:07 | 48.69676 | -60.36358 | 34291 ft | 479 kts | 233° |
| 2026-04-29 15:07 | 48.66246 | -60.44997 | 34291 ft | 479 kts | 233° |
| 2026-04-29 15:08 | 48.62812 | -60.53618 | 34321 ft | 479 kts | 233° |
| 2026-04-29 15:08 | 48.59368 | -60.62237 | 34297 ft | 479 kts | 233° |
| 2026-04-29 15:09 | 48.55920 | -60.70838 | 34293 ft | 479 kts | 233° |
| 2026-04-29 15:09 | 48.52467 | -60.79424 | 34289 ft | 478 kts | 233° |
| 2026-04-29 15:10 | 48.49012 | -60.87985 | 34282 ft | 478 kts | 233° |
| 2026-04-29 15:10 | 48.45557 | -60.96523 | 34285 ft | 476 kts | 233° |
| 2026-04-29 15:11 | 48.42106 | -61.05025 | 34289 ft | 475 kts | 233° |
| 2026-04-29 15:11 | 48.38657 | -61.13491 | 34285 ft | 474 kts | 233° |
| 2026-04-29 15:12 | 48.35207 | -61.21934 | 34277 ft | 473 kts | 233° |
| 2026-04-29 15:12 | 48.31758 | -61.30348 | 34272 ft | 472 kts | 234° |
| 2026-04-29 15:13 | 48.28313 | -61.38727 | 34277 ft | 471 kts | 234° |
| 2026-04-29 15:13 | 48.24871 | -61.47071 | 34281 ft | 469 kts | 234° |
| 2026-04-29 15:14 | 48.22011 | -61.53985 | 34276 ft | 469 kts | 234° |
| 2026-04-29 15:14 | 48.18016 | -61.63616 | 34275 ft | 467 kts | 236° |
| 2026-04-29 15:15 | 48.14580 | -61.71870 | 34267 ft | 466 kts | 236° |
| 2026-04-29 15:15 | 48.11706 | -61.78753 | 34265 ft | 465 kts | 236° |
| 2026-04-29 15:16 | 48.08271 | -61.86957 | 34269 ft | 465 kts | 235° |
| 2026-04-29 15:16 | 48.04833 | -61.95145 | 34263 ft | 465 kts | 235° |
| 2026-04-29 15:17 | 48.01392 | -62.03314 | 34265 ft | 464 kts | 236° |
| 2026-04-29 15:17 | 47.97968 | -62.11420 | 34263 ft | 464 kts | 236° |
| 2026-04-29 15:18 | 47.94519 | -62.19561 | 34264 ft | 464 kts | 236° |
| 2026-04-29 15:18 | 47.91064 | -62.27689 | 34260 ft | 464 kts | 236° |
| 2026-04-29 15:19 | 47.87605 | -62.35802 | 34259 ft | 464 kts | 238° |
| 2026-04-29 15:19 | 47.84144 | -62.43896 | 34254 ft | 463 kts | 238° |
| 2026-04-29 15:20 | 47.80685 | -62.51965 | 34250 ft | 462 kts | 238° |
| 2026-04-29 15:20 | 47.77221 | -62.60020 | 34247 ft | 462 kts | 238° |
| 2026-04-29 15:21 | 47.73753 | -62.68059 | 34248 ft | 462 kts | 238° |
| 2026-04-29 15:21 | 47.70279 | -62.76090 | 34248 ft | 462 kts | 237° |
| 2026-04-29 15:22 | 47.66801 | -62.84104 | 34243 ft | 462 kts | 237° |
| 2026-04-29 15:22 | 47.63319 | -62.92107 | 34237 ft | 462 kts | 237° |
| 2026-04-29 15:23 | 47.59827 | -63.00106 | 34230 ft | 462 kts | 238° |
| 2026-04-29 15:23 | 47.56332 | -63.08091 | 34239 ft | 462 kts | 238° |
| 2026-04-29 15:24 | 47.52837 | -63.16053 | 34241 ft | 461 kts | 238° |
| 2026-04-29 15:24 | 47.49331 | -63.24018 | 34232 ft | 462 kts | 238° |
| 2026-04-29 15:25 | 47.45821 | -63.31965 | 34234 ft | 462 kts | 238° |
| 2026-04-29 15:25 | 47.42307 | -63.39899 | 34226 ft | 461 kts | 238° |
| 2026-04-29 15:26 | 47.38816 | -63.47760 | 34230 ft | 461 kts | 238° |
| 2026-04-29 15:26 | 47.35295 | -63.55666 | 34226 ft | 461 kts | 238° |
| 2026-04-29 15:27 | 47.31768 | -63.63562 | 34228 ft | 461 kts | 238° |
| 2026-04-29 15:27 | 47.28240 | -63.71438 | 34220 ft | 461 kts | 237° |
| 2026-04-29 15:28 | 47.24706 | -63.79304 | 34224 ft | 460 kts | 237° |
| 2026-04-29 15:28 | 47.21167 | -63.87158 | 34217 ft | 460 kts | 237° |
| 2026-04-29 15:29 | 47.17625 | -63.94999 | 34215 ft | 460 kts | 237° |
| 2026-04-29 15:30 | 47.10521 | -64.10656 | 34199 ft | 461 kts | 237° |
| 2026-04-29 15:30 | 47.06959 | -64.18473 | 34219 ft | 461 kts | 237° |
| 2026-04-29 15:31 | 47.03390 | -64.26283 | 34215 ft | 461 kts | 237° |
| 2026-04-29 15:31 | 46.99814 | -64.34087 | 34198 ft | 461 kts | 236° |
| 2026-04-29 15:32 | 46.96234 | -64.41878 | 34209 ft | 461 kts | 236° |
| 2026-04-29 15:32 | 46.92642 | -64.49671 | 34205 ft | 462 kts | 236° |
| 2026-04-29 15:33 | 46.89042 | -64.57461 | 34201 ft | 462 kts | 236° |
| 2026-04-29 15:33 | 46.85458 | -64.65195 | 34198 ft | 463 kts | 236° |
| 2026-04-29 15:34 | 46.81846 | -64.72965 | 34193 ft | 462 kts | 236° |
| 2026-04-29 15:34 | 46.78233 | -64.80719 | 34213 ft | 462 kts | 235° |
| 2026-04-29 15:35 | 46.74617 | -64.88457 | 34203 ft | 461 kts | 235° |
| 2026-04-29 15:35 | 46.71006 | -64.96163 | 34194 ft | 460 kts | 234° |
| 2026-04-29 15:36 | 46.67397 | -65.03841 | 34206 ft | 458 kts | 234° |
| 2026-04-29 15:36 | 46.63798 | -65.11481 | 34203 ft | 457 kts | 234° |
| 2026-04-29 15:37 | 46.60201 | -65.19092 | 34203 ft | 456 kts | 234° |
| 2026-04-29 15:37 | 46.56605 | -65.26680 | 34204 ft | 456 kts | 234° |
| 2026-04-29 15:38 | 46.53006 | -65.34256 | 34205 ft | 455 kts | 234° |
| 2026-04-29 15:38 | 46.49410 | -65.41804 | 34205 ft | 454 kts | 234° |
| 2026-04-29 15:39 | 46.45808 | -65.49346 | 34195 ft | 454 kts | 234° |
| 2026-04-29 15:39 | 46.42205 | -65.56867 | 34198 ft | 454 kts | 234° |
| 2026-04-29 15:40 | 46.38598 | -65.64378 | 34189 ft | 454 kts | 233° |
| 2026-04-29 15:40 | 46.34990 | -65.71871 | 34183 ft | 454 kts | 233° |
| 2026-04-29 15:41 | 46.31381 | -65.79347 | 34187 ft | 453 kts | 233° |
| 2026-04-29 15:41 | 46.27797 | -65.86749 | 34188 ft | 452 kts | 233° |
| 2026-04-29 15:42 | 46.24191 | -65.94177 | 34182 ft | 452 kts | 233° |
| 2026-04-29 15:42 | 46.20579 | -66.01598 | 34181 ft | 452 kts | 233° |
| 2026-04-29 15:43 | 46.16961 | -66.09013 | 34191 ft | 451 kts | 233° |
| 2026-04-29 15:43 | 46.13343 | -66.16408 | 34198 ft | 451 kts | 233° |
| 2026-04-29 15:44 | 46.09716 | -66.23802 | 34196 ft | 452 kts | 232° |
| 2026-04-29 15:44 | 46.06082 | -66.31191 | 34175 ft | 452 kts | 232° |
| 2026-04-29 15:45 | 46.02444 | -66.38568 | 34201 ft | 452 kts | 232° |
| 2026-04-29 15:45 | 45.98807 | -66.45926 | 34191 ft | 451 kts | 232° |
| 2026-04-29 15:46 | 45.95175 | -66.53251 | 34196 ft | 449 kts | 232° |
| 2026-04-29 15:46 | 45.91547 | -66.60550 | 34177 ft | 448 kts | 232° |
| 2026-04-29 15:47 | 45.87923 | -66.67824 | 34192 ft | 447 kts | 232° |
| 2026-04-29 15:47 | 45.84303 | -66.75069 | 34190 ft | 447 kts | 232° |
| 2026-04-29 15:48 | 45.80681 | -66.82302 | 34180 ft | 446 kts | 232° |
| 2026-04-29 15:48 | 45.77055 | -66.89522 | 34178 ft | 446 kts | 232° |
| 2026-04-29 15:49 | 45.73428 | -66.96727 | 34191 ft | 446 kts | 232° |
| 2026-04-29 15:49 | 45.69797 | -67.03922 | 34185 ft | 446 kts | 232° |
| 2026-04-29 15:50 | 45.66160 | -67.11108 | 34199 ft | 446 kts | 232° |
| 2026-04-29 15:50 | 45.62522 | -67.18281 | 34193 ft | 446 kts | 231° |
| 2026-04-29 15:51 | 45.58874 | -67.25454 | 34188 ft | 446 kts | 231° |
| 2026-04-29 15:51 | 45.55218 | -67.32625 | 34199 ft | 447 kts | 231° |
| 2026-04-29 15:52 | 45.51557 | -67.39788 | 34188 ft | 447 kts | 231° |
| 2026-04-29 15:52 | 45.47891 | -67.46942 | 34190 ft | 447 kts | 231° |
| 2026-04-29 15:53 | 45.44245 | -67.54041 | 34195 ft | 448 kts | 231° |
| 2026-04-29 15:53 | 45.40562 | -67.61194 | 34186 ft | 448 kts | 231° |
| 2026-04-29 15:54 | 45.36882 | -67.68326 | 34180 ft | 447 kts | 231° |
| 2026-04-29 15:54 | 45.33189 | -67.75444 | 34181 ft | 447 kts | 231° |
| 2026-04-29 15:55 | 45.29385 | -67.82436 | 34183 ft | 447 kts | 230° |
| 2026-04-29 15:55 | 45.25539 | -67.89382 | 34187 ft | 448 kts | 230° |
| 2026-04-29 15:56 | 45.21690 | -67.96343 | 34176 ft | 448 kts | 230° |
| 2026-04-29 15:56 | 45.17845 | -68.03308 | 34177 ft | 449 kts | 230° |
| 2026-04-29 15:57 | 45.14000 | -68.10268 | 34176 ft | 449 kts | 230° |
| 2026-04-29 15:57 | 45.10143 | -68.17235 | 34180 ft | 450 kts | 230° |
| 2026-04-29 15:58 | 45.06278 | -68.24198 | 34169 ft | 450 kts | 231° |
| 2026-04-29 15:58 | 45.02403 | -68.31160 | 34166 ft | 451 kts | 231° |
| 2026-04-29 15:59 | 44.98516 | -68.38128 | 34174 ft | 451 kts | 231° |
| 2026-04-29 15:59 | 44.94623 | -68.45089 | 34163 ft | 452 kts | 231° |
| 2026-04-29 16:00 | 44.90721 | -68.52048 | 34161 ft | 452 kts | 231° |
| 2026-04-29 16:00 | 44.86809 | -68.59009 | 34159 ft | 453 kts | 231° |
| 2026-04-29 16:01 | 44.82914 | -68.65922 | 34162 ft | 454 kts | 232° |
| 2026-04-29 16:01 | 44.78975 | -68.72897 | 34138 ft | 455 kts | 232° |
| 2026-04-29 16:02 | 44.75030 | -68.79867 | 34139 ft | 455 kts | 232° |
| 2026-04-29 16:02 | 44.71079 | -68.86828 | 34138 ft | 456 kts | 232° |
| 2026-04-29 16:03 | 44.67122 | -68.93784 | 34145 ft | 455 kts | 232° |
| 2026-04-29 16:03 | 44.63832 | -68.99554 | 34146 ft | 455 kts | 232° |
| 2026-04-29 16:04 | 44.59869 | -69.06487 | 34136 ft | 455 kts | 232° |
| 2026-04-29 16:04 | 44.55909 | -69.13401 | 34152 ft | 455 kts | 232° |
| 2026-04-29 16:05 | 44.51944 | -69.20307 | 34150 ft | 455 kts | 232° |
| 2026-04-29 16:05 | 44.47976 | -69.27201 | 34151 ft | 455 kts | 232° |
| 2026-04-29 16:06 | 44.43997 | -69.34099 | 34150 ft | 455 kts | 233° |
| 2026-04-29 16:06 | 44.40015 | -69.40983 | 34112 ft | 455 kts | 233° |
| 2026-04-29 16:07 | 44.36027 | -69.47860 | 34112 ft | 455 kts | 233° |
| 2026-04-29 16:07 | 44.32033 | -69.54735 | 34119 ft | 456 kts | 233° |
| 2026-04-29 16:08 | 44.28030 | -69.61606 | 34128 ft | 456 kts | 232° |
| 2026-04-29 16:08 | 44.24019 | -69.68475 | 34141 ft | 458 kts | 232° |
| 2026-04-29 16:09 | 44.19987 | -69.75365 | 34138 ft | 459 kts | 232° |
| 2026-04-29 16:09 | 44.15944 | -69.82255 | 34136 ft | 460 kts | 232° |
| 2026-04-29 16:10 | 44.11893 | -69.89142 | 34133 ft | 460 kts | 232° |
| 2026-04-29 16:10 | 44.07837 | -69.96022 | 34141 ft | 460 kts | 232° |
| 2026-04-29 16:11 | 44.03780 | -70.02887 | 34158 ft | 459 kts | 232° |
| 2026-04-29 16:11 | 43.99738 | -70.09710 | 34099 ft | 456 kts | 233° |
| 2026-04-29 16:12 | 43.95752 | -70.16425 | 34103 ft | 452 kts | 233° |
| 2026-04-29 16:12 | 43.91760 | -70.23132 | 34102 ft | 449 kts | 233° |
| 2026-04-29 16:13 | 43.87785 | -70.29795 | 34113 ft | 448 kts | 233° |
| 2026-04-29 16:13 | 43.83810 | -70.36447 | 34127 ft | 448 kts | 233° |
| 2026-04-29 16:14 | 43.79825 | -70.43096 | 34129 ft | 449 kts | 233° |
| 2026-04-29 16:14 | 43.75834 | -70.49742 | 34150 ft | 450 kts | 233° |
| 2026-04-29 16:15 | 43.71821 | -70.56407 | 34132 ft | 451 kts | 233° |
| 2026-04-29 16:15 | 43.67802 | -70.63069 | 34126 ft | 451 kts | 233° |
| 2026-04-29 16:16 | 43.63778 | -70.69724 | 34134 ft | 451 kts | 233° |
| 2026-04-29 16:16 | 43.59764 | -70.76350 | 34117 ft | 449 kts | 234° |
| 2026-04-29 16:17 | 43.55667 | -70.82820 | 34079 ft | 449 kts | 228° |
| 2026-04-29 16:17 | 43.50828 | -70.88285 | 34089 ft | 452 kts | 220° |
| 2026-04-29 16:18 | 43.45411 | -70.92752 | 34085 ft | 454 kts | 215° |
| 2026-04-29 16:18 | 43.39903 | -70.96985 | 34077 ft | 453 kts | 215° |
| 2026-04-29 16:19 | 43.34419 | -71.01230 | 34068 ft | 452 kts | 216° |
| 2026-04-29 16:19 | 43.28983 | -71.05463 | 34067 ft | 452 kts | 216° |
| 2026-04-29 16:20 | 43.23514 | -71.09720 | 34080 ft | 453 kts | 216° |
| 2026-04-29 16:20 | 43.18029 | -71.13980 | 34086 ft | 454 kts | 216° |
| 2026-04-29 16:21 | 43.12529 | -71.18241 | 34089 ft | 455 kts | 216° |
| 2026-04-29 16:21 | 43.07304 | -71.22982 | 34095 ft | 447 kts | 226° |
| 2026-04-29 16:22 | 43.02888 | -71.28841 | 34067 ft | 438 kts | 235° |
| 2026-04-29 16:22 | 42.99066 | -71.35300 | 34065 ft | 437 kts | 236° |
| 2026-04-29 16:23 | 42.95262 | -71.41757 | 34071 ft | 436 kts | 236° |
| 2026-04-29 16:23 | 42.91440 | -71.48195 | 34060 ft | 436 kts | 236° |
| 2026-04-29 16:24 | 42.87616 | -71.54597 | 34063 ft | 435 kts | 236° |
| 2026-04-29 16:24 | 42.83796 | -71.60973 | 34072 ft | 434 kts | 236° |
| 2026-04-29 16:25 | 42.79979 | -71.67331 | 34080 ft | 433 kts | 236° |
| 2026-04-29 16:25 | 42.76166 | -71.73668 | 34077 ft | 433 kts | 236° |
| 2026-04-29 16:26 | 42.72372 | -71.79961 | 34048 ft | 432 kts | 237° |
| 2026-04-29 16:26 | 42.68553 | -71.86280 | 34075 ft | 433 kts | 237° |
| 2026-04-29 16:27 | 42.64724 | -71.92603 | 34086 ft | 433 kts | 236° |
| 2026-04-29 16:27 | 42.60899 | -71.98905 | 34068 ft | 431 kts | 236° |
| 2026-04-29 16:28 | 42.57088 | -72.05171 | 34061 ft | 430 kts | 236° |
| 2026-04-29 16:28 | 42.53285 | -72.11411 | 34064 ft | 429 kts | 236° |
| 2026-04-29 16:29 | 42.49484 | -72.17638 | 34059 ft | 429 kts | 236° |
| 2026-04-29 16:29 | 42.45679 | -72.23855 | 34031 ft | 429 kts | 236° |
| 2026-04-29 16:30 | 42.41870 | -72.30068 | 34019 ft | 429 kts | 236° |
| 2026-04-29 16:30 | 42.38061 | -72.36265 | 34036 ft | 428 kts | 236° |
| 2026-04-29 16:31 | 42.34249 | -72.42455 | 34012 ft | 428 kts | 236° |
| 2026-04-29 16:31 | 42.30428 | -72.48648 | 34002 ft | 429 kts | 236° |
| 2026-04-29 16:32 | 42.26603 | -72.54834 | 33982 ft | 429 kts | 236° |
| 2026-04-29 16:32 | 42.22777 | -72.61010 | 34003 ft | 429 kts | 236° |
| 2026-04-29 16:33 | 42.17055 | -72.70223 | 34030 ft | 429 kts | 236° |
| 2026-04-29 16:33 | 42.13303 | -72.76453 | 34025 ft | 427 kts | 238° |
| 2026-04-29 16:34 | 42.09661 | -72.82769 | 34015 ft | 426 kts | 238° |
| 2026-04-29 16:34 | 42.06009 | -72.89058 | 34017 ft | 426 kts | 238° |
| 2026-04-29 16:35 | 42.02343 | -72.95320 | 34018 ft | 425 kts | 237° |
| 2026-04-29 16:35 | 41.98677 | -73.01553 | 34021 ft | 425 kts | 236° |
| 2026-04-29 16:36 | 41.94440 | -73.07188 | 34013 ft | 432 kts | 227° |
| 2026-04-29 16:36 | 41.89557 | -73.11983 | 34026 ft | 439 kts | 220° |
| 2026-04-29 16:37 | 41.84359 | -73.16299 | 34015 ft | 440 kts | 219° |
| 2026-04-29 16:37 | 41.80034 | -73.19888 | 34035 ft | 440 kts | 219° |
| 2026-04-29 16:38 | 41.73969 | -73.24968 | 34012 ft | 439 kts | 219° |
| 2026-04-29 16:38 | 41.68802 | -73.29331 | 34017 ft | 437 kts | 221° |
| 2026-04-29 16:39 | 41.64188 | -73.34449 | 34020 ft | 428 kts | 230° |
| 2026-04-29 16:39 | 41.60237 | -73.40287 | 34020 ft | 422 kts | 235° |
| 2026-04-29 16:40 | 41.56403 | -73.46237 | 34024 ft | 422 kts | 235° |
| 2026-04-29 16:40 | 41.52583 | -73.52124 | 34000 ft | 422 kts | 234° |
| 2026-04-29 16:41 | 41.48732 | -73.58029 | 34013 ft | 422 kts | 234° |
| 2026-04-29 16:41 | 41.44851 | -73.63966 | 34034 ft | 422 kts | 234° |
| 2026-04-29 16:42 | 41.41002 | -73.69841 | 34021 ft | 420 kts | 235° |
| 2026-04-29 16:42 | 41.37175 | -73.75675 | 34017 ft | 417 kts | 235° |
| 2026-04-29 16:43 | 41.33362 | -73.81457 | 34011 ft | 415 kts | 234° |
| 2026-04-29 16:43 | 41.29503 | -73.87148 | 34026 ft | 414 kts | 234° |
| 2026-04-29 16:44 | 41.25633 | -73.92825 | 33996 ft | 415 kts | 233° |
| 2026-04-29 16:44 | 41.21772 | -73.98496 | 34021 ft | 419 kts | 234° |
| 2026-04-29 16:45 | 41.17822 | -74.04295 | 34040 ft | 422 kts | 233° |
| 2026-04-29 16:45 | 41.13905 | -74.10032 | 34032 ft | 423 kts | 234° |
| 2026-04-29 16:46 | 41.10139 | -74.15988 | 34026 ft | 420 kts | 236° |
| 2026-04-29 16:46 | 41.06487 | -74.22017 | 34016 ft | 419 kts | 236° |
| 2026-04-29 16:47 | 41.02823 | -74.28013 | 34030 ft | 419 kts | 236° |
| 2026-04-29 16:47 | 40.99133 | -74.33991 | 34040 ft | 419 kts | 236° |
| 2026-04-29 16:48 | 40.95441 | -74.39945 | 34043 ft | 418 kts | 235° |
| 2026-04-29 16:48 | 40.91744 | -74.45888 | 34016 ft | 418 kts | 234° |
| 2026-04-29 16:49 | 40.88050 | -74.51816 | 34040 ft | 418 kts | 234° |
| 2026-04-29 16:49 | 40.84348 | -74.57748 | 34043 ft | 419 kts | 234° |
| 2026-04-29 16:50 | 40.80631 | -74.63692 | 34040 ft | 420 kts | 234° |
| 2026-04-29 16:50 | 40.76897 | -74.69653 | 34014 ft | 422 kts | 234° |
| 2026-04-29 16:51 | 40.73788 | -74.74605 | 33997 ft | 422 kts | 234° |
| 2026-04-29 16:51 | 40.70042 | -74.80562 | 34029 ft | 423 kts | 234° |
| 2026-04-29 16:52 | 40.65673 | -74.87498 | 34025 ft | 423 kts | 234° |
| 2026-04-29 16:52 | 40.61903 | -74.93469 | 34018 ft | 424 kts | 234° |
| 2026-04-29 16:53 | 40.58742 | -74.98469 | 34022 ft | 424 kts | 234° |
| 2026-04-29 16:53 | 40.54964 | -75.04432 | 34014 ft | 424 kts | 235° |
| 2026-04-29 16:54 | 40.51223 | -75.10357 | 34025 ft | 424 kts | 235° |
| 2026-04-29 16:54 | 40.47439 | -75.16348 | 33995 ft | 423 kts | 235° |
| 2026-04-29 16:55 | 40.43681 | -75.22284 | 34019 ft | 422 kts | 235° |
| 2026-04-29 16:55 | 40.39954 | -75.28159 | 33992 ft | 422 kts | 236° |
| 2026-04-29 16:56 | 40.36200 | -75.34067 | 34015 ft | 422 kts | 236° |
| 2026-04-29 16:56 | 40.32441 | -75.39970 | 34020 ft | 422 kts | 236° |
| 2026-04-29 16:57 | 40.28680 | -75.45865 | 34046 ft | 422 kts | 236° |
| 2026-04-29 16:57 | 40.24913 | -75.51760 | 34033 ft | 421 kts | 236° |
| 2026-04-29 16:58 | 40.21281 | -75.57737 | 34025 ft | 416 kts | 242° |
| 2026-04-29 16:58 | 40.18140 | -75.64093 | 34046 ft | 416 kts | 242° |
| 2026-04-29 16:59 | 40.14960 | -75.70449 | 34025 ft | 417 kts | 242° |
| 2026-04-29 16:59 | 40.11778 | -75.76776 | 34025 ft | 415 kts | 242° |
| 2026-04-29 17:00 | 40.08613 | -75.83056 | 34029 ft | 412 kts | 242° |
| 2026-04-29 17:00 | 40.05458 | -75.89261 | 34018 ft | 409 kts | 242° |
| 2026-04-29 17:01 | 40.02308 | -75.95439 | 34018 ft | 408 kts | 241° |
| 2026-04-29 17:01 | 39.99164 | -76.01603 | 34024 ft | 408 kts | 241° |
| 2026-04-29 17:02 | 39.96012 | -76.07768 | 34008 ft | 409 kts | 241° |
| 2026-04-29 17:02 | 39.92903 | -76.13927 | 34014 ft | 410 kts | 242° |
| 2026-04-29 17:03 | 39.89760 | -76.20152 | 34026 ft | 413 kts | 240° |
| 2026-04-29 17:03 | 39.86564 | -76.26391 | 34017 ft | 415 kts | 240° |
| 2026-04-29 17:04 | 39.83348 | -76.32646 | 34017 ft | 416 kts | 240° |
| 2026-04-29 17:04 | 39.80125 | -76.38913 | 34017 ft | 417 kts | 240° |
| 2026-04-29 17:05 | 39.76899 | -76.45175 | 34009 ft | 417 kts | 240° |
| 2026-04-29 17:05 | 39.73669 | -76.51436 | 34010 ft | 417 kts | 239° |
| 2026-04-29 17:06 | 39.70431 | -76.57702 | 34008 ft | 418 kts | 238° |
| 2026-04-29 17:06 | 39.67175 | -76.63982 | 34001 ft | 420 kts | 239° |
| 2026-04-29 17:07 | 39.63905 | -76.70287 | 34006 ft | 422 kts | 239° |
| 2026-04-29 17:07 | 39.60613 | -76.76618 | 34006 ft | 424 kts | 239° |
| 2026-04-29 17:08 | 39.57312 | -76.82954 | 34015 ft | 424 kts | 239° |
| 2026-04-29 17:08 | 39.54006 | -76.89287 | 33978 ft | 424 kts | 239° |
| 2026-04-29 17:09 | 39.50602 | -76.95510 | 33957 ft | 425 kts | 235° |
| 2026-04-29 17:09 | 39.46535 | -77.01038 | 33981 ft | 429 kts | 228° |
| 2026-04-29 17:10 | 39.41908 | -77.05963 | 33993 ft | 431 kts | 225° |
| 2026-04-29 17:10 | 39.37242 | -77.10820 | 34006 ft | 430 kts | 225° |
| 2026-04-29 17:11 | 39.32588 | -77.15679 | 33999 ft | 430 kts | 225° |
| 2026-04-29 17:11 | 39.27954 | -77.20527 | 33984 ft | 427 kts | 227° |
| 2026-04-29 17:12 | 39.23353 | -77.25341 | 33992 ft | 425 kts | 226° |
| 2026-04-29 17:12 | 39.19513 | -77.29351 | 33991 ft | 423 kts | 226° |
| 2026-04-29 17:13 | 39.14205 | -77.34888 | 33991 ft | 422 kts | 226° |
| 2026-04-29 17:13 | 39.09641 | -77.39638 | 33982 ft | 421 kts | 226° |
| 2026-04-29 17:14 | 39.05077 | -77.44381 | 33991 ft | 422 kts | 226° |
| 2026-04-29 17:14 | 39.00495 | -77.49134 | 33982 ft | 423 kts | 226° |
| 2026-04-29 17:15 | 38.95901 | -77.53892 | 33980 ft | 425 kts | 226° |
| 2026-04-29 17:15 | 38.91294 | -77.58652 | 33965 ft | 425 kts | 226° |
| 2026-04-29 17:16 | 38.86668 | -77.63428 | 33982 ft | 429 kts | 225° |
| 2026-04-29 17:16 | 38.81994 | -77.68244 | 33981 ft | 433 kts | 225° |
| 2026-04-29 17:17 | 38.77271 | -77.73100 | 33976 ft | 436 kts | 225° |
| 2026-04-29 17:17 | 38.72539 | -77.77957 | 33979 ft | 436 kts | 225° |
| 2026-04-29 17:18 | 38.67812 | -77.82799 | 33965 ft | 434 kts | 226° |
| 2026-04-29 17:18 | 38.63465 | -77.87991 | 33991 ft | 422 kts | 233° |
| 2026-04-29 17:19 | 38.59844 | -77.93789 | 33993 ft | 415 kts | 239° |
| 2026-04-29 17:19 | 38.56398 | -77.99699 | 33987 ft | 414 kts | 238° |
| 2026-04-29 17:20 | 38.52972 | -78.05544 | 33983 ft | 414 kts | 238° |
| 2026-04-29 17:20 | 38.49506 | -78.11435 | 33962 ft | 415 kts | 238° |
| 2026-04-29 17:21 | 38.46034 | -78.17317 | 33966 ft | 415 kts | 238° |
| 2026-04-29 17:21 | 38.42547 | -78.23219 | 33972 ft | 417 kts | 238° |
| 2026-04-29 17:22 | 38.39042 | -78.29138 | 33954 ft | 418 kts | 238° |
| 2026-04-29 17:22 | 38.35540 | -78.35040 | 33957 ft | 417 kts | 238° |
| 2026-04-29 17:23 | 38.32036 | -78.40935 | 33965 ft | 417 kts | 238° |
| 2026-04-29 17:23 | 38.28537 | -78.46813 | 33956 ft | 417 kts | 238° |
| 2026-04-29 17:24 | 38.25032 | -78.52690 | 33969 ft | 417 kts | 238° |
| 2026-04-29 17:24 | 38.21522 | -78.58565 | 33970 ft | 418 kts | 238° |
| 2026-04-29 17:25 | 38.17999 | -78.64451 | 33962 ft | 418 kts | 237° |
| 2026-04-29 17:25 | 38.14476 | -78.70326 | 33957 ft | 418 kts | 237° |
| 2026-04-29 17:26 | 38.10961 | -78.76175 | 33942 ft | 416 kts | 237° |
| 2026-04-29 17:26 | 38.07443 | -78.82026 | 33956 ft | 418 kts | 237° |
| 2026-04-29 17:27 | 38.03932 | -78.87848 | 33958 ft | 418 kts | 237° |
| 2026-04-29 17:27 | 38.00388 | -78.93717 | 33937 ft | 419 kts | 237° |
| 2026-04-29 17:28 | 37.96837 | -78.99588 | 33932 ft | 420 kts | 237° |
| 2026-04-29 17:28 | 37.93280 | -79.05460 | 33947 ft | 420 kts | 237° |
| 2026-04-29 17:29 | 37.89722 | -79.11317 | 34011 ft | 420 kts | 237° |
| 2026-04-29 17:29 | 37.86767 | -79.16182 | 34057 ft | 419 kts | 237° |
| 2026-04-29 17:30 | 37.82632 | -79.22984 | 34136 ft | 416 kts | 237° |
| 2026-04-29 17:30 | 37.79109 | -79.28775 | 34171 ft | 415 kts | 237° |
| 2026-04-29 17:31 | 37.75588 | -79.34556 | 34179 ft | 415 kts | 237° |
| 2026-04-29 17:31 | 37.72072 | -79.40327 | 34175 ft | 414 kts | 237° |
| 2026-04-29 17:32 | 37.68557 | -79.46096 | 34149 ft | 415 kts | 237° |
| 2026-04-29 17:32 | 37.65026 | -79.51893 | 34114 ft | 418 kts | 237° |
| 2026-04-29 17:33 | 37.61473 | -79.57729 | 34061 ft | 420 kts | 237° |
| 2026-04-29 17:33 | 37.57910 | -79.63585 | 34001 ft | 422 kts | 237° |
| 2026-04-29 17:34 | 37.54338 | -79.69455 | 33931 ft | 422 kts | 237° |
| 2026-04-29 17:34 | 37.50770 | -79.75316 | 33923 ft | 422 kts | 237° |
| 2026-04-29 17:35 | 37.45437 | -79.84068 | 33953 ft | 422 kts | 237° |
| 2026-04-29 17:36 | 37.41866 | -79.89926 | 33964 ft | 422 kts | 237° |
| 2026-04-29 17:36 | 37.38289 | -79.95796 | 33965 ft | 423 kts | 237° |
| 2026-04-29 17:37 | 37.34712 | -80.01663 | 33965 ft | 422 kts | 237° |
| 2026-04-29 17:37 | 37.31138 | -80.07521 | 33960 ft | 422 kts | 237° |
| 2026-04-29 17:38 | 37.27567 | -80.13375 | 33951 ft | 422 kts | 237° |
| 2026-04-29 17:38 | 37.23996 | -80.19228 | 33954 ft | 423 kts | 237° |
| 2026-04-29 17:39 | 37.20416 | -80.25094 | 33974 ft | 424 kts | 237° |
| 2026-04-29 17:39 | 37.16831 | -80.30970 | 33969 ft | 424 kts | 237° |
| 2026-04-29 17:40 | 37.13245 | -80.36846 | 33967 ft | 424 kts | 237° |
| 2026-04-29 17:40 | 37.10265 | -80.41727 | 33972 ft | 424 kts | 237° |
| 2026-04-29 17:41 | 37.06684 | -80.47592 | 33953 ft | 423 kts | 237° |
| 2026-04-29 17:41 | 37.03102 | -80.53456 | 33942 ft | 424 kts | 237° |
| 2026-04-29 17:42 | 36.99519 | -80.59319 | 33937 ft | 424 kts | 237° |
| 2026-04-29 17:42 | 36.95937 | -80.65178 | 33928 ft | 424 kts | 237° |
| 2026-04-29 17:43 | 36.92354 | -80.71030 | 33950 ft | 424 kts | 237° |
| 2026-04-29 17:43 | 36.88770 | -80.76883 | 33956 ft | 425 kts | 237° |
| 2026-04-29 17:44 | 36.85183 | -80.82742 | 33959 ft | 423 kts | 237° |
| 2026-04-29 17:44 | 36.81612 | -80.88573 | 33964 ft | 423 kts | 237° |
| 2026-04-29 17:45 | 36.78039 | -80.94400 | 33966 ft | 423 kts | 237° |
| 2026-04-29 17:45 | 36.74466 | -81.00225 | 33956 ft | 423 kts | 237° |
| 2026-04-29 17:46 | 36.70893 | -81.06048 | 33942 ft | 423 kts | 237° |
| 2026-04-29 17:46 | 36.67319 | -81.11868 | 33914 ft | 423 kts | 237° |
| 2026-04-29 17:47 | 36.63750 | -81.17676 | 33942 ft | 423 kts | 237° |
| 2026-04-29 17:47 | 36.60166 | -81.23517 | 33924 ft | 426 kts | 237° |
| 2026-04-29 17:48 | 36.56559 | -81.29397 | 33926 ft | 429 kts | 237° |
| 2026-04-29 17:48 | 36.52934 | -81.35306 | 33983 ft | 430 kts | 237° |
| 2026-04-29 17:49 | 36.49307 | -81.41218 | 33985 ft | 430 kts | 237° |
| 2026-04-29 17:49 | 36.45708 | -81.47083 | 33980 ft | 429 kts | 237° |
| 2026-04-29 17:50 | 36.42073 | -81.52995 | 33984 ft | 428 kts | 237° |
| 2026-04-29 17:50 | 36.38487 | -81.58829 | 33912 ft | 428 kts | 237° |
| 2026-04-29 17:51 | 36.34851 | -81.64743 | 33894 ft | 428 kts | 237° |
| 2026-04-29 17:51 | 36.31263 | -81.70565 | 33924 ft | 429 kts | 237° |
| 2026-04-29 17:52 | 36.27633 | -81.76449 | 33921 ft | 430 kts | 238° |
| 2026-04-29 17:52 | 36.24012 | -81.82335 | 33921 ft | 429 kts | 238° |
| 2026-04-29 17:53 | 36.20399 | -81.88213 | 33908 ft | 428 kts | 237° |
| 2026-04-29 17:53 | 36.16781 | -81.94088 | 33915 ft | 430 kts | 237° |
| 2026-04-29 17:54 | 36.13161 | -81.99975 | 33907 ft | 428 kts | 238° |
| 2026-04-29 17:54 | 36.09552 | -82.05845 | 33916 ft | 430 kts | 237° |
| 2026-04-29 17:55 | 36.05922 | -82.11746 | 33924 ft | 432 kts | 237° |
| 2026-04-29 17:55 | 36.02280 | -82.17670 | 33924 ft | 433 kts | 237° |
| 2026-04-29 17:56 | 35.98640 | -82.23592 | 33879 ft | 434 kts | 238° |
| 2026-04-29 17:56 | 35.94986 | -82.29535 | 33904 ft | 435 kts | 238° |
| 2026-04-29 17:57 | 35.91357 | -82.35448 | 33919 ft | 436 kts | 238° |
| 2026-04-29 17:57 | 35.87692 | -82.41418 | 33922 ft | 437 kts | 238° |
| 2026-04-29 17:58 | 35.84030 | -82.47378 | 33927 ft | 436 kts | 238° |
| 2026-04-29 17:58 | 35.80373 | -82.53324 | 33912 ft | 434 kts | 238° |
| 2026-04-29 17:59 | 35.76732 | -82.59237 | 33920 ft | 433 kts | 238° |
| 2026-04-29 17:59 | 35.73097 | -82.65138 | 33930 ft | 432 kts | 238° |
| 2026-04-29 18:00 | 35.69470 | -82.71023 | 33927 ft | 431 kts | 238° |
| 2026-04-29 18:00 | 35.65845 | -82.76906 | 33945 ft | 432 kts | 238° |
| 2026-04-29 18:01 | 35.62224 | -82.82777 | 33954 ft | 431 kts | 238° |
| 2026-04-29 18:01 | 35.58613 | -82.88630 | 33929 ft | 429 kts | 239° |
| 2026-04-29 18:02 | 35.55007 | -82.94467 | 33923 ft | 428 kts | 239° |
| 2026-04-29 18:02 | 35.51409 | -83.00286 | 33927 ft | 428 kts | 238° |
| 2026-04-29 18:03 | 35.47807 | -83.06111 | 33924 ft | 430 kts | 238° |
| 2026-04-29 18:03 | 35.44183 | -83.11963 | 33909 ft | 432 kts | 238° |
| 2026-04-29 18:04 | 35.40546 | -83.17825 | 33942 ft | 432 kts | 239° |
| 2026-04-29 18:04 | 35.36911 | -83.23708 | 33943 ft | 433 kts | 239° |
| 2026-04-29 18:05 | 35.33272 | -83.29599 | 33946 ft | 433 kts | 239° |
| 2026-04-29 18:05 | 35.29668 | -83.35440 | 33951 ft | 433 kts | 239° |
| 2026-04-29 18:06 | 35.26035 | -83.41324 | 33948 ft | 434 kts | 239° |
| 2026-04-29 18:06 | 35.22398 | -83.47211 | 33961 ft | 433 kts | 239° |
| 2026-04-29 18:07 | 35.18762 | -83.53097 | 33986 ft | 435 kts | 239° |
| 2026-04-29 18:07 | 35.15097 | -83.59028 | 33953 ft | 433 kts | 239° |
| 2026-04-29 18:08 | 35.11486 | -83.64863 | 33959 ft | 434 kts | 239° |
| 2026-04-29 18:08 | 35.07847 | -83.70739 | 33931 ft | 434 kts | 239° |
| 2026-04-29 18:09 | 35.04209 | -83.76618 | 33975 ft | 435 kts | 239° |
| 2026-04-29 18:09 | 35.00563 | -83.82518 | 33995 ft | 436 kts | 239° |
| 2026-04-29 18:10 | 34.96917 | -83.88422 | 34019 ft | 436 kts | 239° |
| 2026-04-29 18:10 | 34.93266 | -83.94333 | 34035 ft | 437 kts | 240° |
| 2026-04-29 18:11 | 34.89617 | -84.00236 | 34038 ft | 436 kts | 240° |
| 2026-04-29 18:11 | 34.85978 | -84.06120 | 34022 ft | 434 kts | 240° |
| 2026-04-29 18:12 | 34.82341 | -84.11988 | 34019 ft | 434 kts | 240° |
| 2026-04-29 18:12 | 34.78702 | -84.17865 | 33997 ft | 435 kts | 240° |
| 2026-04-29 18:13 | 34.75049 | -84.23759 | 34004 ft | 437 kts | 240° |
| 2026-04-29 18:13 | 34.71382 | -84.29687 | 33994 ft | 439 kts | 240° |
| 2026-04-29 18:14 | 34.67710 | -84.35629 | 33968 ft | 440 kts | 240° |
| 2026-04-29 18:14 | 34.64043 | -84.41564 | 33955 ft | 439 kts | 240° |
| 2026-04-29 18:15 | 34.60385 | -84.47480 | 33917 ft | 438 kts | 240° |
| 2026-04-29 18:15 | 34.56728 | -84.53394 | 33954 ft | 438 kts | 240° |
| 2026-04-29 18:16 | 34.53065 | -84.59317 | 33969 ft | 439 kts | 240° |
| 2026-04-29 18:16 | 34.49393 | -84.65261 | 33971 ft | 441 kts | 240° |
| 2026-04-29 18:17 | 34.45715 | -84.71213 | 33981 ft | 441 kts | 241° |
| 2026-04-29 18:17 | 34.42040 | -84.77159 | 33963 ft | 440 kts | 241° |
| 2026-04-29 18:18 | 34.38374 | -84.83084 | 33962 ft | 439 kts | 241° |
| 2026-04-29 18:18 | 34.34743 | -84.88948 | 33946 ft | 438 kts | 240° |
| 2026-04-29 18:19 | 34.31066 | -84.94889 | 33967 ft | 438 kts | 241° |
| 2026-04-29 18:19 | 34.27434 | -85.00758 | 33970 ft | 439 kts | 241° |
| 2026-04-29 18:20 | 34.23768 | -85.06684 | 33991 ft | 440 kts | 241° |
| 2026-04-29 18:20 | 34.20110 | -85.12600 | 33964 ft | 439 kts | 241° |
| 2026-04-29 18:21 | 34.16454 | -85.18511 | 33966 ft | 439 kts | 241° |
| 2026-04-29 18:21 | 34.12801 | -85.24416 | 33959 ft | 439 kts | 241° |
| 2026-04-29 18:22 | 34.09152 | -85.30315 | 33956 ft | 438 kts | 241° |
| 2026-04-29 18:22 | 34.05506 | -85.36203 | 33957 ft | 438 kts | 241° |
| 2026-04-29 18:23 | 34.01856 | -85.42098 | 33958 ft | 439 kts | 241° |
| 2026-04-29 18:23 | 33.98210 | -85.47988 | 33968 ft | 438 kts | 241° |
| 2026-04-29 18:24 | 33.94561 | -85.53879 | 33964 ft | 439 kts | 241° |
| 2026-04-29 18:24 | 33.90917 | -85.59760 | 33975 ft | 438 kts | 241° |
| 2026-04-29 18:25 | 33.87283 | -85.65626 | 33876 ft | 434 kts | 241° |
| 2026-04-29 18:25 | 33.83651 | -85.71475 | 33972 ft | 441 kts | 241° |
| 2026-04-29 18:26 | 33.79982 | -85.77407 | 33983 ft | 440 kts | 241° |
| 2026-04-29 18:26 | 33.76337 | -85.83292 | 33989 ft | 438 kts | 241° |
| 2026-04-29 18:27 | 33.73313 | -85.88168 | 33994 ft | 437 kts | 241° |
| 2026-04-29 18:27 | 33.69681 | -85.94022 | 33996 ft | 437 kts | 241° |
| 2026-04-29 18:28 | 33.66051 | -85.99874 | 33984 ft | 437 kts | 241° |
| 2026-04-29 18:28 | 33.62418 | -86.05735 | 33974 ft | 438 kts | 241° |
| 2026-04-29 18:29 | 33.58780 | -86.11603 | 33977 ft | 439 kts | 241° |